PWSweather.com
Personal Weather Stations
Station Observations
KD5LEN
Ktxnorth1, North Richland Hills, TX 76180

Ktxnorth1North Richland Hills, TX 76180

Lat: 32.885294, Lon: -97.236048

Elevation: 694

Station Type: Vantage Pro 2

http://www.atzer0.net/VWS/root/index.htm

High Low Average
Temperature 71.7°F22.1°C 43.1°F6.2°C 61.3°F16.3°C
Dew Point 39.0°F3.9°C 32.3°F0.2°C 36.7°F2.6°C
Winds 11.0 mph 17.7 kmh Calm Calm 3.0 mph SSW4.8 kmh SSW
Wind Gusts 12.0 mph19.3 kmh 2.0 mph3.2 kmh 6.0 mph9.7 kmh
Humidity 72% 27% 42%
Pressure 29.95 in1014.2 mb 29.77 in1008.1 mb -
Precipitation 0.00 in0.0 mm - -
Hour Temp Dew Point Humidity Winds Wind Gusts Pressure Precip Precip Rate Daily Precip Total
06:18 AM 43.5°F6.4°C 34.7°F1.5°C 71% 2.0 mph SW3.2 kmh SW 2.0 mph3.2 kmh 29.92 in1013.2 mb 0.00 in0.0 mm 0.00 in0.0 mm 0.00 in0.0 mm
06:20 AM 43.5°F6.4°C 34.7°F1.5°C 71% 2.0 mph SW3.2 kmh SW 2.0 mph3.2 kmh 29.93 in1013.5 mb 0.00 in0.0 mm 0.00 in0.0 mm 0.00 in0.0 mm
06:22 AM 43.5°F6.4°C 34.7°F1.5°C 71% 1.0 mph SW1.6 kmh SW 2.0 mph3.2 kmh 29.92 in1013.2 mb 0.00 in0.0 mm 0.00 in0.0 mm 0.00 in0.0 mm
06:24 AM 43.5°F6.4°C 34.7°F1.5°C 71% 1.0 mph SW1.6 kmh SW 2.0 mph3.2 kmh 29.93 in1013.5 mb 0.00 in0.0 mm 0.00 in0.0 mm 0.00 in0.0 mm
06:26 AM 43.5°F6.4°C 34.7°F1.5°C 71% 1.0 mph SW1.6 kmh SW 2.0 mph3.2 kmh 29.93 in1013.5 mb 0.00 in0.0 mm 0.00 in0.0 mm 0.00 in0.0 mm
06:28 AM 43.4°F6.3°C 34.6°F1.4°C 71% 1.0 mph SW1.6 kmh SW 2.0 mph3.2 kmh 29.93 in1013.5 mb 0.00 in0.0 mm 0.00 in0.0 mm 0.00 in0.0 mm
06:30 AM 43.3°F6.3°C 34.5°F1.4°C 71% 1.0 mph SW1.6 kmh SW 2.0 mph3.2 kmh 29.93 in1013.5 mb 0.00 in0.0 mm 0.00 in0.0 mm 0.00 in0.0 mm
06:32 AM 43.3°F6.3°C 34.9°F1.6°C 72% Calm Calm 2.0 mph3.2 kmh 29.93 in1013.5 mb 0.00 in0.0 mm 0.00 in0.0 mm 0.00 in0.0 mm
06:34 AM 43.3°F6.3°C 34.5°F1.4°C 71% 1.0 mph SW1.6 kmh SW 2.0 mph3.2 kmh 29.93 in1013.5 mb 0.00 in0.0 mm 0.00 in0.0 mm 0.00 in0.0 mm
06:36 AM 43.3°F6.3°C 34.5°F1.4°C 71% 1.0 mph SW1.6 kmh SW 2.0 mph3.2 kmh 29.93 in1013.5 mb 0.00 in0.0 mm 0.00 in0.0 mm 0.00 in0.0 mm
06:38 AM 43.4°F6.3°C 34.6°F1.4°C 71% 1.0 mph SW1.6 kmh SW 2.0 mph3.2 kmh 29.93 in1013.5 mb 0.00 in0.0 mm 0.00 in0.0 mm 0.00 in0.0 mm
06:40 AM 43.4°F6.3°C 34.6°F1.4°C 71% 2.0 mph SW3.2 kmh SW 2.0 mph3.2 kmh 29.93 in1013.5 mb 0.00 in0.0 mm 0.00 in0.0 mm 0.00 in0.0 mm
06:42 AM 43.4°F6.3°C 34.6°F1.4°C 71% 1.0 mph SW1.6 kmh SW 2.0 mph3.2 kmh 29.93 in1013.5 mb 0.00 in0.0 mm 0.00 in0.0 mm 0.00 in0.0 mm
06:44 AM 43.4°F6.3°C 34.6°F1.4°C 71% 2.0 mph SW3.2 kmh SW 2.0 mph3.2 kmh 29.94 in1013.9 mb 0.00 in0.0 mm 0.00 in0.0 mm 0.00 in0.0 mm
06:46 AM 43.5°F6.4°C 34.7°F1.5°C 71% 1.0 mph SW1.6 kmh SW 2.0 mph3.2 kmh 29.94 in1013.9 mb 0.00 in0.0 mm 0.00 in0.0 mm 0.00 in0.0 mm
06:48 AM 43.4°F6.3°C 34.6°F1.4°C 71% 1.0 mph SW1.6 kmh SW 2.0 mph3.2 kmh 29.94 in1013.9 mb 0.00 in0.0 mm 0.00 in0.0 mm 0.00 in0.0 mm
06:50 AM 43.4°F6.3°C 34.6°F1.4°C 71% 1.0 mph SW1.6 kmh SW 2.0 mph3.2 kmh 29.94 in1013.9 mb 0.00 in0.0 mm 0.00 in0.0 mm 0.00 in0.0 mm
06:52 AM 43.2°F6.2°C 34.5°F1.4°C 71% Calm Calm 2.0 mph3.2 kmh 29.94 in1013.9 mb 0.00 in0.0 mm 0.00 in0.0 mm 0.00 in0.0 mm
06:54 AM 43.1°F6.2°C 34.4°F1.3°C 71% 1.0 mph SW1.6 kmh SW 2.0 mph3.2 kmh 29.93 in1013.5 mb 0.00 in0.0 mm 0.00 in0.0 mm 0.00 in0.0 mm
06:56 AM 43.1°F6.2°C 34.4°F1.3°C 71% 2.0 mph SW3.2 kmh SW 2.0 mph3.2 kmh 29.94 in1013.9 mb 0.00 in0.0 mm 0.00 in0.0 mm 0.00 in0.0 mm
06:58 AM 43.1°F6.2°C 34.4°F1.3°C 71% 2.0 mph SW3.2 kmh SW 2.0 mph3.2 kmh 29.94 in1013.9 mb 0.00 in0.0 mm 0.00 in0.0 mm 0.00 in0.0 mm
07:00 AM 43.2°F6.2°C 34.5°F1.4°C 71% 2.0 mph SW3.2 kmh SW 2.0 mph3.2 kmh 29.94 in1013.9 mb 0.00 in0.0 mm 0.00 in0.0 mm 0.00 in0.0 mm
07:02 AM 43.2°F6.2°C 34.5°F1.4°C 71% 1.0 mph SW1.6 kmh SW 2.0 mph3.2 kmh 29.94 in1013.9 mb 0.00 in0.0 mm 0.00 in0.0 mm 0.00 in0.0 mm
07:04 AM 43.2°F6.2°C 34.5°F1.4°C 71% 2.0 mph SW3.2 kmh SW 3.0 mph4.8 kmh 29.94 in1013.9 mb 0.00 in0.0 mm 0.00 in0.0 mm 0.00 in0.0 mm
07:06 AM 43.3°F6.3°C 34.5°F1.4°C 71% 2.0 mph SW3.2 kmh SW 3.0 mph4.8 kmh 29.94 in1013.9 mb 0.00 in0.0 mm 0.00 in0.0 mm 0.00 in0.0 mm
07:08 AM 43.4°F6.3°C 34.6°F1.4°C 71% 2.0 mph SW3.2 kmh SW 3.0 mph4.8 kmh 29.94 in1013.9 mb 0.00 in0.0 mm 0.00 in0.0 mm 0.00 in0.0 mm
07:10 AM 43.4°F6.3°C 34.6°F1.4°C 71% 2.0 mph SW3.2 kmh SW 3.0 mph4.8 kmh 29.94 in1013.9 mb 0.00 in0.0 mm 0.00 in0.0 mm 0.00 in0.0 mm
07:12 AM 43.5°F6.4°C 34.4°F1.3°C 70% 2.0 mph SW3.2 kmh SW 3.0 mph4.8 kmh 29.94 in1013.9 mb 0.00 in0.0 mm 0.00 in0.0 mm 0.00 in0.0 mm
07:14 AM 43.5°F6.4°C 34.4°F1.3°C 70% 3.0 mph SW4.8 kmh SW 3.0 mph4.8 kmh 29.94 in1013.9 mb 0.00 in0.0 mm 0.00 in0.0 mm 0.00 in0.0 mm
07:16 AM 43.5°F6.4°C 34.4°F1.3°C 70% 2.0 mph SW3.2 kmh SW 3.0 mph4.8 kmh 29.95 in1014.2 mb 0.00 in0.0 mm 0.00 in0.0 mm 0.00 in0.0 mm
07:18 AM 43.6°F6.4°C 34.5°F1.4°C 70% 1.0 mph SW1.6 kmh SW 3.0 mph4.8 kmh 29.94 in1013.9 mb 0.00 in0.0 mm 0.00 in0.0 mm 0.00 in0.0 mm
07:20 AM 43.5°F6.4°C 34.4°F1.3°C 70% 2.0 mph SW3.2 kmh SW 3.0 mph4.8 kmh 29.95 in1014.2 mb 0.00 in0.0 mm 0.00 in0.0 mm 0.00 in0.0 mm
07:22 AM 43.6°F6.4°C 34.5°F1.4°C 70% 2.0 mph SW3.2 kmh SW 3.0 mph4.8 kmh 29.95 in1014.2 mb 0.00 in0.0 mm 0.00 in0.0 mm 0.00 in0.0 mm
07:24 AM 43.5°F6.4°C 34.4°F1.3°C 70% 2.0 mph SW3.2 kmh SW 3.0 mph4.8 kmh 29.95 in1014.2 mb 0.00 in0.0 mm 0.00 in0.0 mm 0.00 in0.0 mm
07:26 AM 43.5°F6.4°C 34.4°F1.3°C 70% 2.0 mph SW3.2 kmh SW 3.0 mph4.8 kmh 29.95 in1014.2 mb 0.00 in0.0 mm 0.00 in0.0 mm 0.00 in0.0 mm
07:28 AM 43.5°F6.4°C 34.4°F1.3°C 70% 2.0 mph SW3.2 kmh SW 3.0 mph4.8 kmh 29.95 in1014.2 mb 0.00 in0.0 mm 0.00 in0.0 mm 0.00 in0.0 mm
07:29 AM 43.6°F6.4°C 34.5°F1.4°C 70% 2.0 mph SW3.2 kmh SW 3.0 mph4.8 kmh 29.94 in1013.9 mb 0.00 in0.0 mm 0.00 in0.0 mm 0.00 in0.0 mm
07:32 AM 43.7°F6.5°C 34.6°F1.4°C 70% 1.0 mph SW1.6 kmh SW 3.0 mph4.8 kmh 29.94 in1013.9 mb 0.00 in0.0 mm 0.00 in0.0 mm 0.00 in0.0 mm
07:34 AM 43.7°F6.5°C 34.6°F1.4°C 70% 1.0 mph SW1.6 kmh SW 2.0 mph3.2 kmh 29.94 in1013.9 mb 0.00 in0.0 mm 0.00 in0.0 mm 0.00 in0.0 mm
07:36 AM 43.8°F6.6°C 34.3°F1.3°C 69% 1.0 mph SW1.6 kmh SW 2.0 mph3.2 kmh 29.95 in1014.2 mb 0.00 in0.0 mm 0.00 in0.0 mm 0.00 in0.0 mm
07:38 AM 43.8°F6.6°C 34.3°F1.3°C 69% 1.0 mph SW1.6 kmh SW 2.0 mph3.2 kmh 29.95 in1014.2 mb 0.00 in0.0 mm 0.00 in0.0 mm 0.00 in0.0 mm
07:40 AM 43.9°F6.6°C 34.4°F1.3°C 69% 1.0 mph SW1.6 kmh SW 2.0 mph3.2 kmh 29.94 in1013.9 mb 0.00 in0.0 mm 0.00 in0.0 mm 0.00 in0.0 mm
07:42 AM 44.0°F6.7°C 34.5°F1.4°C 69% 1.0 mph SW1.6 kmh SW 2.0 mph3.2 kmh 29.94 in1013.9 mb 0.00 in0.0 mm 0.00 in0.0 mm 0.00 in0.0 mm
07:44 AM 44.0°F6.7°C 34.5°F1.4°C 69% 2.0 mph SW3.2 kmh SW 2.0 mph3.2 kmh 29.94 in1013.9 mb 0.00 in0.0 mm 0.00 in0.0 mm 0.00 in0.0 mm
07:46 AM 44.2°F6.8°C 34.7°F1.5°C 69% 2.0 mph SW3.2 kmh SW 3.0 mph4.8 kmh 29.94 in1013.9 mb 0.00 in0.0 mm 0.00 in0.0 mm 0.00 in0.0 mm
07:48 AM 44.3°F6.8°C 34.8°F1.6°C 69% 2.0 mph SW3.2 kmh SW 3.0 mph4.8 kmh 29.95 in1014.2 mb 0.00 in0.0 mm 0.00 in0.0 mm 0.00 in0.0 mm
07:50 AM 44.4°F6.9°C 34.9°F1.6°C 69% 1.0 mph SW1.6 kmh SW 3.0 mph4.8 kmh 29.95 in1014.2 mb 0.00 in0.0 mm 0.00 in0.0 mm 0.00 in0.0 mm
07:52 AM 44.6°F7.0°C 34.7°F1.5°C 68% 2.0 mph SW3.2 kmh SW 3.0 mph4.8 kmh 29.95 in1014.2 mb 0.00 in0.0 mm 0.00 in0.0 mm 0.00 in0.0 mm
07:54 AM 44.7°F7.1°C 34.8°F1.6°C 68% 2.0 mph SW3.2 kmh SW 3.0 mph4.8 kmh 29.95 in1014.2 mb 0.00 in0.0 mm 0.00 in0.0 mm 0.00 in0.0 mm
07:56 AM 44.9°F7.2°C 35.0°F1.7°C 68% 2.0 mph SW3.2 kmh SW 3.0 mph4.8 kmh 29.95 in1014.2 mb 0.00 in0.0 mm 0.00 in0.0 mm 0.00 in0.0 mm
07:58 AM 45.1°F7.3°C 34.8°F1.6°C 67% 1.0 mph SW1.6 kmh SW 3.0 mph4.8 kmh 29.95 in1014.2 mb 0.00 in0.0 mm 0.00 in0.0 mm 0.00 in0.0 mm
08:00 AM 45.2°F7.3°C 34.9°F1.6°C 67% 1.0 mph SW1.6 kmh SW 3.0 mph4.8 kmh 29.95 in1014.2 mb 0.00 in0.0 mm 0.00 in0.0 mm 0.00 in0.0 mm
08:02 AM 45.3°F7.4°C 35.0°F1.7°C 67% 2.0 mph SW3.2 kmh SW 3.0 mph4.8 kmh 29.95 in1014.2 mb 0.00 in0.0 mm 0.00 in0.0 mm 0.00 in0.0 mm
08:04 AM 45.6°F7.6°C 35.3°F1.8°C 67% 1.0 mph SW1.6 kmh SW 3.0 mph4.8 kmh 29.95 in1014.2 mb 0.00 in0.0 mm 0.00 in0.0 mm 0.00 in0.0 mm
08:06 AM 45.8°F7.7°C 35.1°F1.7°C 66% 1.0 mph SW1.6 kmh SW 3.0 mph4.8 kmh 29.95 in1014.2 mb 0.00 in0.0 mm 0.00 in0.0 mm 0.00 in0.0 mm
08:08 AM 45.9°F7.7°C 35.2°F1.8°C 66% 1.0 mph SW1.6 kmh SW 3.0 mph4.8 kmh 29.95 in1014.2 mb 0.00 in0.0 mm 0.00 in0.0 mm 0.00 in0.0 mm
08:10 AM 46.1°F7.8°C 35.4°F1.9°C 66% 2.0 mph SW3.2 kmh SW 3.0 mph4.8 kmh 29.95 in1014.2 mb 0.00 in0.0 mm 0.00 in0.0 mm 0.00 in0.0 mm
08:12 AM 46.3°F7.9°C 35.6°F2.0°C 66% 1.0 mph SW1.6 kmh SW 3.0 mph4.8 kmh 29.95 in1014.2 mb 0.00 in0.0 mm 0.00 in0.0 mm 0.00 in0.0 mm
08:14 AM 46.5°F8.1°C 35.8°F2.1°C 66% 1.0 mph SW1.6 kmh SW 3.0 mph4.8 kmh 29.95 in1014.2 mb 0.00 in0.0 mm 0.00 in0.0 mm 0.00 in0.0 mm
08:16 AM 46.7°F8.2°C 35.6°F2.0°C 65% 3.0 mph SW4.8 kmh SW 3.0 mph4.8 kmh 29.95 in1014.2 mb 0.00 in0.0 mm 0.00 in0.0 mm 0.00 in0.0 mm
08:18 AM 47.0°F8.3°C 35.9°F2.2°C 65% 2.0 mph SW3.2 kmh SW 3.0 mph4.8 kmh 29.95 in1014.2 mb 0.00 in0.0 mm 0.00 in0.0 mm 0.00 in0.0 mm
08:19 AM 47.2°F8.4°C 35.7°F2.1°C 64% 2.0 mph SW3.2 kmh SW 3.0 mph4.8 kmh 29.95 in1014.2 mb 0.00 in0.0 mm 0.00 in0.0 mm 0.00 in0.0 mm
08:22 AM 47.5°F8.6°C 35.9°F2.2°C 64% 1.0 mph SW1.6 kmh SW 3.0 mph4.8 kmh 29.95 in1014.2 mb 0.00 in0.0 mm 0.00 in0.0 mm 0.00 in0.0 mm
08:24 AM 47.7°F8.7°C 36.1°F2.3°C 64% Calm Calm 3.0 mph4.8 kmh 29.95 in1014.2 mb 0.00 in0.0 mm 0.00 in0.0 mm 0.00 in0.0 mm
08:26 AM 48.0°F8.9°C 36.4°F2.4°C 64% 2.0 mph SW3.2 kmh SW 3.0 mph4.8 kmh 29.95 in1014.2 mb 0.00 in0.0 mm 0.00 in0.0 mm 0.00 in0.0 mm
08:28 AM 48.3°F9.1°C 36.3°F2.4°C 63% 2.0 mph SW3.2 kmh SW 3.0 mph4.8 kmh 29.95 in1014.2 mb 0.00 in0.0 mm 0.00 in0.0 mm 0.00 in0.0 mm
08:30 AM 48.5°F9.2°C 36.5°F2.5°C 63% 2.0 mph SW3.2 kmh SW 3.0 mph4.8 kmh 29.95 in1014.2 mb 0.00 in0.0 mm 0.00 in0.0 mm 0.00 in0.0 mm
08:32 AM 48.8°F9.3°C 36.4°F2.4°C 62% 1.0 mph SW1.6 kmh SW 3.0 mph4.8 kmh 29.95 in1014.2 mb 0.00 in0.0 mm 0.00 in0.0 mm 0.00 in0.0 mm
08:34 AM 49.1°F9.5°C 37.1°F2.8°C 63% 2.0 mph SW3.2 kmh SW 3.0 mph4.8 kmh 29.95 in1014.2 mb 0.00 in0.0 mm 0.00 in0.0 mm 0.00 in0.0 mm
08:36 AM 49.3°F9.6°C 37.3°F2.9°C 63% 4.0 mph SW6.4 kmh SW 4.0 mph6.4 kmh 29.94 in1013.9 mb 0.00 in0.0 mm 0.00 in0.0 mm 0.00 in0.0 mm
08:38 AM 49.5°F9.7°C 36.6°F2.6°C 61% 3.0 mph SW4.8 kmh SW 4.0 mph6.4 kmh 29.94 in1013.9 mb 0.00 in0.0 mm 0.00 in0.0 mm 0.00 in0.0 mm
08:40 AM 49.8°F9.9°C 36.9°F2.7°C 61% Calm Calm 4.0 mph6.4 kmh 29.94 in1013.9 mb 0.00 in0.0 mm 0.00 in0.0 mm 0.00 in0.0 mm
08:42 AM 50.0°F10.0°C 37.1°F2.8°C 61% Calm Calm 4.0 mph6.4 kmh 29.94 in1013.9 mb 0.00 in0.0 mm 0.00 in0.0 mm 0.00 in0.0 mm
08:44 AM 50.1°F10.1°C 37.2°F2.9°C 61% 1.0 mph SW1.6 kmh SW 4.0 mph6.4 kmh 29.94 in1013.9 mb 0.00 in0.0 mm 0.00 in0.0 mm 0.00 in0.0 mm
08:46 AM 50.4°F10.2°C 37.5°F3.1°C 61% Calm Calm 4.0 mph6.4 kmh 29.94 in1013.9 mb 0.00 in0.0 mm 0.00 in0.0 mm 0.00 in0.0 mm
08:48 AM 50.6°F10.3°C 37.2°F2.9°C 60% 2.0 mph SW3.2 kmh SW 4.0 mph6.4 kmh 29.94 in1013.9 mb 0.00 in0.0 mm 0.00 in0.0 mm 0.00 in0.0 mm
08:50 AM 50.8°F10.4°C 36.6°F2.6°C 58% 1.0 mph SW1.6 kmh SW 4.0 mph6.4 kmh 29.94 in1013.9 mb 0.00 in0.0 mm 0.00 in0.0 mm 0.00 in0.0 mm
08:52 AM 51.0°F10.6°C 36.8°F2.7°C 58% 1.0 mph SW1.6 kmh SW 4.0 mph6.4 kmh 29.94 in1013.9 mb 0.00 in0.0 mm 0.00 in0.0 mm 0.00 in0.0 mm
08:54 AM 51.3°F10.7°C 37.5°F3.1°C 59% 3.0 mph SW4.8 kmh SW 4.0 mph6.4 kmh 29.95 in1014.2 mb 0.00 in0.0 mm 0.00 in0.0 mm 0.00 in0.0 mm
08:56 AM 51.5°F10.8°C 37.2°F2.9°C 58% 3.0 mph SW4.8 kmh SW 4.0 mph6.4 kmh 29.94 in1013.9 mb 0.00 in0.0 mm 0.00 in0.0 mm 0.00 in0.0 mm
08:58 AM 51.7°F10.9°C 37.4°F3.0°C 58% 3.0 mph SW4.8 kmh SW 4.0 mph6.4 kmh 29.95 in1014.2 mb 0.00 in0.0 mm 0.00 in0.0 mm 0.00 in0.0 mm
09:03 AM 52.2°F11.2°C 37.0°F2.8°C 56% 2.0 mph SW3.2 kmh SW 3.0 mph4.8 kmh 29.95 in1014.2 mb 0.00 in0.0 mm 0.00 in0.0 mm 0.00 in0.0 mm
09:06 AM 52.4°F11.3°C 37.2°F2.9°C 56% 1.0 mph SSW1.6 kmh SSW 4.0 mph6.4 kmh 29.94 in1013.9 mb 0.00 in0.0 mm 0.00 in0.0 mm 0.00 in0.0 mm
09:08 AM 52.5°F11.4°C 37.3°F2.9°C 56% 3.0 mph SW4.8 kmh SW 4.0 mph6.4 kmh 29.94 in1013.9 mb 0.00 in0.0 mm 0.00 in0.0 mm 0.00 in0.0 mm
09:10 AM 52.7°F11.5°C 37.0°F2.8°C 55% 3.0 mph SSW4.8 kmh SSW 5.0 mph8.0 kmh 29.94 in1013.9 mb 0.00 in0.0 mm 0.00 in0.0 mm 0.00 in0.0 mm
09:12 AM 52.9°F11.6°C 37.2°F2.9°C 55% 1.0 mph SSW1.6 kmh SSW 5.0 mph8.0 kmh 29.94 in1013.9 mb 0.00 in0.0 mm 0.00 in0.0 mm 0.00 in0.0 mm
09:14 AM 53.1°F11.7°C 36.9°F2.7°C 54% 2.0 mph SSW3.2 kmh SSW 5.0 mph8.0 kmh 29.94 in1013.9 mb 0.00 in0.0 mm 0.00 in0.0 mm 0.00 in0.0 mm
09:16 AM 53.3°F11.8°C 37.1°F2.8°C 54% 4.0 mph SSW6.4 kmh SSW 5.0 mph8.0 kmh 29.94 in1013.9 mb 0.00 in0.0 mm 0.00 in0.0 mm 0.00 in0.0 mm
09:18 AM 53.5°F11.9°C 36.8°F2.7°C 53% 3.0 mph SSW4.8 kmh SSW 5.0 mph8.0 kmh 29.94 in1013.9 mb 0.00 in0.0 mm 0.00 in0.0 mm 0.00 in0.0 mm
09:20 AM 53.7°F12.1°C 36.5°F2.5°C 52% 2.0 mph SSW3.2 kmh SSW 5.0 mph8.0 kmh 29.94 in1013.9 mb 0.00 in0.0 mm 0.00 in0.0 mm 0.00 in0.0 mm
09:22 AM 53.9°F12.2°C 36.7°F2.6°C 52% 3.0 mph SSW4.8 kmh SSW 5.0 mph8.0 kmh 29.94 in1013.9 mb 0.00 in0.0 mm 0.00 in0.0 mm 0.00 in0.0 mm
09:24 AM 54.0°F12.2°C 36.3°F2.4°C 51% 3.0 mph SSW4.8 kmh SSW 5.0 mph8.0 kmh 29.94 in1013.9 mb 0.00 in0.0 mm 0.00 in0.0 mm 0.00 in0.0 mm
09:26 AM 54.2°F12.3°C 36.5°F2.5°C 51% 3.0 mph SSW4.8 kmh SSW 5.0 mph8.0 kmh 29.94 in1013.9 mb 0.00 in0.0 mm 0.00 in0.0 mm 0.00 in0.0 mm
09:28 AM 54.4°F12.4°C 36.7°F2.6°C 51% 2.0 mph SSW3.2 kmh SSW 5.0 mph8.0 kmh 29.94 in1013.9 mb 0.00 in0.0 mm 0.00 in0.0 mm 0.00 in0.0 mm
09:30 AM 54.6°F12.6°C 36.4°F2.4°C 50% 1.0 mph SSW1.6 kmh SSW 5.0 mph8.0 kmh 29.94 in1013.9 mb 0.00 in0.0 mm 0.00 in0.0 mm 0.00 in0.0 mm
09:32 AM 54.8°F12.7°C 37.0°F2.8°C 51% 2.0 mph SSW3.2 kmh SSW 5.0 mph8.0 kmh 29.94 in1013.9 mb 0.00 in0.0 mm 0.00 in0.0 mm 0.00 in0.0 mm
09:34 AM 55.1°F12.8°C 36.8°F2.7°C 50% 1.0 mph SSW1.6 kmh SSW 3.0 mph4.8 kmh 29.94 in1013.9 mb 0.00 in0.0 mm 0.00 in0.0 mm 0.00 in0.0 mm
09:36 AM 55.4°F13.0°C 36.6°F2.6°C 49% 3.0 mph S4.8 kmh S 4.0 mph6.4 kmh 29.94 in1013.9 mb 0.00 in0.0 mm 0.00 in0.0 mm 0.00 in0.0 mm
09:38 AM 55.6°F13.1°C 36.2°F2.3°C 48% 1.0 mph S1.6 kmh S 4.0 mph6.4 kmh 29.94 in1013.9 mb 0.00 in0.0 mm 0.00 in0.0 mm 0.00 in0.0 mm
09:40 AM 55.9°F13.3°C 36.5°F2.5°C 48% 3.0 mph S4.8 kmh S 6.0 mph9.7 kmh 29.94 in1013.9 mb 0.00 in0.0 mm 0.00 in0.0 mm 0.00 in0.0 mm
09:42 AM 56.1°F13.4°C 36.7°F2.6°C 48% 3.0 mph S4.8 kmh S 6.0 mph9.7 kmh 29.94 in1013.9 mb 0.00 in0.0 mm 0.00 in0.0 mm 0.00 in0.0 mm
09:44 AM 56.3°F13.5°C 36.9°F2.7°C 48% 5.0 mph S8.0 kmh S 6.0 mph9.7 kmh 29.93 in1013.5 mb 0.00 in0.0 mm 0.00 in0.0 mm 0.00 in0.0 mm
09:46 AM 56.5°F13.6°C 36.5°F2.5°C 47% 2.0 mph S3.2 kmh S 6.0 mph9.7 kmh 29.93 in1013.5 mb 0.00 in0.0 mm 0.00 in0.0 mm 0.00 in0.0 mm
09:48 AM 56.6°F13.7°C 37.2°F2.9°C 48% 5.0 mph SSE8.0 kmh SSE 6.0 mph9.7 kmh 29.93 in1013.5 mb 0.00 in0.0 mm 0.00 in0.0 mm 0.00 in0.0 mm
09:50 AM 56.9°F13.8°C 36.4°F2.4°C 46% 2.0 mph S3.2 kmh S 6.0 mph9.7 kmh 29.94 in1013.9 mb 0.00 in0.0 mm 0.00 in0.0 mm 0.00 in0.0 mm
09:52 AM 57.1°F13.9°C 36.5°F2.5°C 46% 5.0 mph SSW8.0 kmh SSW 6.0 mph9.7 kmh 29.94 in1013.9 mb 0.00 in0.0 mm 0.00 in0.0 mm 0.00 in0.0 mm
09:54 AM 57.3°F14.1°C 36.7°F2.6°C 46% 3.0 mph SSW4.8 kmh SSW 6.0 mph9.7 kmh 29.94 in1013.9 mb 0.00 in0.0 mm 0.00 in0.0 mm 0.00 in0.0 mm
09:56 AM 57.5°F14.2°C 36.9°F2.7°C 46% 1.0 mph SSW1.6 kmh SSW 6.0 mph9.7 kmh 29.94 in1013.9 mb 0.00 in0.0 mm 0.00 in0.0 mm 0.00 in0.0 mm
09:58 AM 57.8°F14.3°C 37.2°F2.9°C 46% 3.0 mph SSW4.8 kmh SSW 6.0 mph9.7 kmh 29.94 in1013.9 mb 0.00 in0.0 mm 0.00 in0.0 mm 0.00 in0.0 mm
10:00 AM 58.0°F14.4°C 36.2°F2.3°C 44% 5.0 mph S8.0 kmh S 6.0 mph9.7 kmh 29.94 in1013.9 mb 0.00 in0.0 mm 0.00 in0.0 mm 0.00 in0.0 mm
10:02 AM 58.2°F14.6°C 36.4°F2.4°C 44% 4.0 mph S6.4 kmh S 6.0 mph9.7 kmh 29.94 in1013.9 mb 0.00 in0.0 mm 0.00 in0.0 mm 0.00 in0.0 mm
10:04 AM 58.3°F14.6°C 36.5°F2.5°C 44% 4.0 mph SSW6.4 kmh SSW 6.0 mph9.7 kmh 29.94 in1013.9 mb 0.00 in0.0 mm 0.00 in0.0 mm 0.00 in0.0 mm
10:06 AM 58.3°F14.6°C 36.5°F2.5°C 44% 4.0 mph SSW6.4 kmh SSW 6.0 mph9.7 kmh 29.94 in1013.9 mb 0.00 in0.0 mm 0.00 in0.0 mm 0.00 in0.0 mm
10:08 AM 58.3°F14.6°C 36.5°F2.5°C 44% 2.0 mph S3.2 kmh S 6.0 mph9.7 kmh 29.94 in1013.9 mb 0.00 in0.0 mm 0.00 in0.0 mm 0.00 in0.0 mm
10:10 AM 58.5°F14.7°C 36.7°F2.6°C 44% 3.0 mph SSW4.8 kmh SSW 6.0 mph9.7 kmh 29.94 in1013.9 mb 0.00 in0.0 mm 0.00 in0.0 mm 0.00 in0.0 mm
10:12 AM 58.8°F14.9°C 36.4°F2.4°C 43% 3.0 mph SW4.8 kmh SW 6.0 mph9.7 kmh 29.94 in1013.9 mb 0.00 in0.0 mm 0.00 in0.0 mm 0.00 in0.0 mm
10:14 AM 59.0°F15.0°C 36.6°F2.6°C 43% 7.0 mph SSW11.3 kmh SSW 7.0 mph11.3 kmh 29.94 in1013.9 mb 0.00 in0.0 mm 0.00 in0.0 mm 0.00 in0.0 mm
10:16 AM 59.1°F15.1°C 35.4°F1.9°C 41% 3.0 mph SW4.8 kmh SW 9.0 mph14.5 kmh 29.94 in1013.9 mb 0.00 in0.0 mm 0.00 in0.0 mm 0.00 in0.0 mm
10:18 AM 59.1°F15.1°C 35.4°F1.9°C 41% 7.0 mph WSW11.3 kmh WSW 9.0 mph14.5 kmh 29.94 in1013.9 mb 0.00 in0.0 mm 0.00 in0.0 mm 0.00 in0.0 mm
10:20 AM 59.2°F15.1°C 35.5°F1.9°C 41% 6.0 mph SSW9.7 kmh SSW 9.0 mph14.5 kmh 29.94 in1013.9 mb 0.00 in0.0 mm 0.00 in0.0 mm 0.00 in0.0 mm
10:22 AM 59.2°F15.1°C 35.5°F1.9°C 41% 4.0 mph S6.4 kmh S 9.0 mph14.5 kmh 29.94 in1013.9 mb 0.00 in0.0 mm 0.00 in0.0 mm 0.00 in0.0 mm
10:24 AM 59.2°F15.1°C 35.5°F1.9°C 41% 2.0 mph SSW3.2 kmh SSW 9.0 mph14.5 kmh 29.94 in1013.9 mb 0.00 in0.0 mm 0.00 in0.0 mm 0.00 in0.0 mm
10:26 AM 59.3°F15.2°C 35.0°F1.7°C 40% 3.0 mph S4.8 kmh S 9.0 mph14.5 kmh 29.94 in1013.9 mb 0.00 in0.0 mm 0.00 in0.0 mm 0.00 in0.0 mm
10:28 AM 59.4°F15.2°C 35.1°F1.7°C 40% 5.0 mph SSW8.0 kmh SSW 9.0 mph14.5 kmh 29.94 in1013.9 mb 0.00 in0.0 mm 0.00 in0.0 mm 0.00 in0.0 mm
10:30 AM 59.6°F15.3°C 35.9°F2.2°C 41% 6.0 mph S9.7 kmh S 9.0 mph14.5 kmh 29.93 in1013.5 mb 0.00 in0.0 mm 0.00 in0.0 mm 0.00 in0.0 mm
10:32 AM 59.8°F15.4°C 35.5°F1.9°C 40% 4.0 mph S6.4 kmh S 9.0 mph14.5 kmh 29.93 in1013.5 mb 0.00 in0.0 mm 0.00 in0.0 mm 0.00 in0.0 mm
10:34 AM 59.9°F15.5°C 36.2°F2.3°C 41% 6.0 mph SSE9.7 kmh SSE 8.0 mph12.9 kmh 29.94 in1013.9 mb 0.00 in0.0 mm 0.00 in0.0 mm 0.00 in0.0 mm
10:36 AM 60.1°F15.6°C 35.7°F2.1°C 40% 7.0 mph SSE11.3 kmh SSE 8.0 mph12.9 kmh 29.93 in1013.5 mb 0.00 in0.0 mm 0.00 in0.0 mm 0.00 in0.0 mm
10:38 AM 60.2°F15.7°C 35.8°F2.1°C 40% 6.0 mph S9.7 kmh S 8.0 mph12.9 kmh 29.93 in1013.5 mb 0.00 in0.0 mm 0.00 in0.0 mm 0.00 in0.0 mm
10:40 AM 60.3°F15.7°C 36.5°F2.5°C 41% 3.0 mph SSW4.8 kmh SSW 8.0 mph12.9 kmh 29.93 in1013.5 mb 0.00 in0.0 mm 0.00 in0.0 mm 0.00 in0.0 mm
10:42 AM 60.5°F15.8°C 36.1°F2.3°C 40% 5.0 mph S8.0 kmh S 8.0 mph12.9 kmh 29.93 in1013.5 mb 0.00 in0.0 mm 0.00 in0.0 mm 0.00 in0.0 mm
10:44 AM 60.6°F15.9°C 36.2°F2.3°C 40% 2.0 mph S3.2 kmh S 8.0 mph12.9 kmh 29.93 in1013.5 mb 0.00 in0.0 mm 0.00 in0.0 mm 0.00 in0.0 mm
10:46 AM 60.7°F15.9°C 36.3°F2.4°C 40% 1.0 mph S1.6 kmh S 8.0 mph12.9 kmh 29.93 in1013.5 mb 0.00 in0.0 mm 0.00 in0.0 mm 0.00 in0.0 mm
10:47 AM 60.8°F16.0°C 37.0°F2.8°C 41% 1.0 mph S1.6 kmh S 8.0 mph12.9 kmh 29.93 in1013.5 mb 0.00 in0.0 mm 0.00 in0.0 mm 0.00 in0.0 mm
10:50 AM 61.0°F16.1°C 36.5°F2.5°C 40% 7.0 mph SSW11.3 kmh SSW 8.0 mph12.9 kmh 29.93 in1013.5 mb 0.00 in0.0 mm 0.00 in0.0 mm 0.00 in0.0 mm
10:52 AM 61.0°F16.1°C 35.9°F2.2°C 39% 6.0 mph SW9.7 kmh SW 8.0 mph12.9 kmh 29.93 in1013.5 mb 0.00 in0.0 mm 0.00 in0.0 mm 0.00 in0.0 mm
10:54 AM 61.2°F16.2°C 36.1°F2.3°C 39% 3.0 mph SW4.8 kmh SW 8.0 mph12.9 kmh 29.93 in1013.5 mb 0.00 in0.0 mm 0.00 in0.0 mm 0.00 in0.0 mm
10:56 AM 61.4°F16.3°C 36.3°F2.4°C 39% 4.0 mph WSW6.4 kmh WSW 8.0 mph12.9 kmh 29.93 in1013.5 mb 0.00 in0.0 mm 0.00 in0.0 mm 0.00 in0.0 mm
10:58 AM 61.6°F16.4°C 36.4°F2.4°C 39% 2.0 mph WSW3.2 kmh WSW 8.0 mph12.9 kmh 29.93 in1013.5 mb 0.00 in0.0 mm 0.00 in0.0 mm 0.00 in0.0 mm
11:00 AM 61.9°F16.6°C 36.7°F2.6°C 39% 6.0 mph SSW9.7 kmh SSW 8.0 mph12.9 kmh 29.92 in1013.2 mb 0.00 in0.0 mm 0.00 in0.0 mm 0.00 in0.0 mm
11:02 AM 62.0°F16.7°C 36.1°F2.3°C 38% 6.0 mph S9.7 kmh S 8.0 mph12.9 kmh 29.92 in1013.2 mb 0.00 in0.0 mm 0.00 in0.0 mm 0.00 in0.0 mm
11:04 AM 62.1°F16.7°C 36.2°F2.3°C 38% 2.0 mph S3.2 kmh S 5.0 mph8.0 kmh 29.92 in1013.2 mb 0.00 in0.0 mm 0.00 in0.0 mm 0.00 in0.0 mm
11:06 AM 62.3°F16.8°C 35.7°F2.1°C 37% 4.0 mph S6.4 kmh S 7.0 mph11.3 kmh 29.92 in1013.2 mb 0.00 in0.0 mm 0.00 in0.0 mm 0.00 in0.0 mm
11:08 AM 62.3°F16.8°C 35.7°F2.1°C 37% 2.0 mph SW3.2 kmh SW 8.0 mph12.9 kmh 29.92 in1013.2 mb 0.00 in0.0 mm 0.00 in0.0 mm 0.00 in0.0 mm
11:10 AM 62.4°F16.9°C 35.1°F1.7°C 36% 2.0 mph SW3.2 kmh SW 8.0 mph12.9 kmh 29.92 in1013.2 mb 0.00 in0.0 mm 0.00 in0.0 mm 0.00 in0.0 mm
11:12 AM 62.5°F16.9°C 35.9°F2.2°C 37% 3.0 mph S4.8 kmh S 8.0 mph12.9 kmh 29.92 in1013.2 mb 0.00 in0.0 mm 0.00 in0.0 mm 0.00 in0.0 mm
11:14 AM 62.8°F17.1°C 35.5°F1.9°C 36% 5.0 mph S8.0 kmh S 8.0 mph12.9 kmh 29.92 in1013.2 mb 0.00 in0.0 mm 0.00 in0.0 mm 0.00 in0.0 mm
11:16 AM 62.9°F17.2°C 34.9°F1.6°C 35% 6.0 mph SW9.7 kmh SW 8.0 mph12.9 kmh 29.92 in1013.2 mb 0.00 in0.0 mm 0.00 in0.0 mm 0.00 in0.0 mm
11:18 AM 63.1°F17.3°C 33.6°F0.9°C 33% 2.0 mph WSW3.2 kmh WSW 8.0 mph12.9 kmh 29.92 in1013.2 mb 0.00 in0.0 mm 0.00 in0.0 mm 0.00 in0.0 mm
11:20 AM 63.3°F17.4°C 34.5°F1.4°C 34% 8.0 mph SSW12.9 kmh SSW 8.0 mph12.9 kmh 29.91 in1012.9 mb 0.00 in0.0 mm 0.00 in0.0 mm 0.00 in0.0 mm
11:22 AM 63.3°F17.4°C 34.5°F1.4°C 34% 6.0 mph SW9.7 kmh SW 8.0 mph12.9 kmh 29.92 in1013.2 mb 0.00 in0.0 mm 0.00 in0.0 mm 0.00 in0.0 mm
11:24 AM 63.3°F17.4°C 33.7°F0.9°C 33% 5.0 mph WSW8.0 kmh WSW 8.0 mph12.9 kmh 29.91 in1012.9 mb 0.00 in0.0 mm 0.00 in0.0 mm 0.00 in0.0 mm
11:26 AM 63.3°F17.4°C 33.7°F0.9°C 33% 3.0 mph SSW4.8 kmh SSW 8.0 mph12.9 kmh 29.91 in1012.9 mb 0.00 in0.0 mm 0.00 in0.0 mm 0.00 in0.0 mm
11:28 AM 63.4°F17.4°C 33.8°F1.0°C 33% 4.0 mph SW6.4 kmh SW 8.0 mph12.9 kmh 29.91 in1012.9 mb 0.00 in0.0 mm 0.00 in0.0 mm 0.00 in0.0 mm
11:30 AM 63.6°F17.6°C 34.7°F1.5°C 34% 2.0 mph W3.2 kmh W 8.0 mph12.9 kmh 29.91 in1012.9 mb 0.00 in0.0 mm 0.00 in0.0 mm 0.00 in0.0 mm
11:32 AM 63.9°F17.7°C 34.3°F1.3°C 33% 3.0 mph W4.8 kmh W 8.0 mph12.9 kmh 29.92 in1013.2 mb 0.00 in0.0 mm 0.00 in0.0 mm 0.00 in0.0 mm
11:34 AM 64.1°F17.8°C 33.7°F0.9°C 32% 4.0 mph SSE6.4 kmh SSE 7.0 mph11.3 kmh 29.91 in1012.9 mb 0.00 in0.0 mm 0.00 in0.0 mm 0.00 in0.0 mm
11:36 AM 64.2°F17.9°C 34.5°F1.4°C 33% 2.0 mph S3.2 kmh S 7.0 mph11.3 kmh 29.91 in1012.9 mb 0.00 in0.0 mm 0.00 in0.0 mm 0.00 in0.0 mm
11:38 AM 64.4°F18.0°C 34.7°F1.5°C 33% 10.0 mph SSW16.1 kmh SSW 10.0 mph16.1 kmh 29.91 in1012.9 mb 0.00 in0.0 mm 0.00 in0.0 mm 0.00 in0.0 mm
11:40 AM 64.5°F18.1°C 32.4°F0.2°C 30% 6.0 mph WSW9.7 kmh WSW 10.0 mph16.1 kmh 29.91 in1012.9 mb 0.00 in0.0 mm 0.00 in0.0 mm 0.00 in0.0 mm
11:42 AM 64.4°F18.0°C 33.1°F0.6°C 31% 4.0 mph SW6.4 kmh SW 10.0 mph16.1 kmh 29.91 in1012.9 mb 0.00 in0.0 mm 0.00 in0.0 mm 0.00 in0.0 mm
11:44 AM 64.5°F18.1°C 33.2°F0.7°C 31% 7.0 mph SW11.3 kmh SW 10.0 mph16.1 kmh 29.90 in1012.5 mb 0.00 in0.0 mm 0.00 in0.0 mm 0.00 in0.0 mm
11:46 AM 64.5°F18.1°C 33.2°F0.7°C 31% 4.0 mph SW6.4 kmh SW 10.0 mph16.1 kmh 29.90 in1012.5 mb 0.00 in0.0 mm 0.00 in0.0 mm 0.00 in0.0 mm
11:48 AM 64.5°F18.1°C 33.2°F0.7°C 31% 7.0 mph WSW11.3 kmh WSW 10.0 mph16.1 kmh 29.90 in1012.5 mb 0.00 in0.0 mm 0.00 in0.0 mm 0.00 in0.0 mm
11:50 AM 64.5°F18.1°C 33.2°F0.7°C 31% 7.0 mph WSW11.3 kmh WSW 10.0 mph16.1 kmh 29.90 in1012.5 mb 0.00 in0.0 mm 0.00 in0.0 mm 0.00 in0.0 mm
11:52 AM 64.5°F18.1°C 33.2°F0.7°C 31% 4.0 mph SW6.4 kmh SW 10.0 mph16.1 kmh 29.90 in1012.5 mb 0.00 in0.0 mm 0.00 in0.0 mm 0.00 in0.0 mm
11:54 AM 64.7°F18.2°C 34.2°F1.2°C 32% 4.0 mph WSW6.4 kmh WSW 10.0 mph16.1 kmh 29.90 in1012.5 mb 0.00 in0.0 mm 0.00 in0.0 mm 0.00 in0.0 mm
11:56 AM 64.8°F18.2°C 33.5°F0.8°C 31% 6.0 mph SW9.7 kmh SW 10.0 mph16.1 kmh 29.89 in1012.2 mb 0.00 in0.0 mm 0.00 in0.0 mm 0.00 in0.0 mm
11:58 AM 65.0°F18.3°C 33.7°F0.9°C 31% 3.0 mph SW4.8 kmh SW 10.0 mph16.1 kmh 29.89 in1012.2 mb 0.00 in0.0 mm 0.00 in0.0 mm 0.00 in0.0 mm
12:00 PM 65.3°F18.5°C 33.9°F1.1°C 31% 2.0 mph SSW3.2 kmh SSW 10.0 mph16.1 kmh 29.89 in1012.2 mb 0.00 in0.0 mm 0.00 in0.0 mm 0.00 in0.0 mm
12:02 PM 65.3°F18.5°C 32.3°F0.2°C 29% 4.0 mph SW6.4 kmh SW 11.0 mph17.7 kmh 29.89 in1012.2 mb 0.00 in0.0 mm 0.00 in0.0 mm 0.00 in0.0 mm
12:04 PM 65.5°F18.6°C 33.3°F0.7°C 30% 4.0 mph SW6.4 kmh SW 10.0 mph16.1 kmh 29.89 in1012.2 mb 0.00 in0.0 mm 0.00 in0.0 mm 0.00 in0.0 mm
12:06 PM 65.6°F18.7°C 32.5°F0.3°C 29% 3.0 mph WSW4.8 kmh WSW 10.0 mph16.1 kmh 29.89 in1012.2 mb 0.00 in0.0 mm 0.00 in0.0 mm 0.00 in0.0 mm
12:07 PM 65.7°F18.7°C 32.6°F0.3°C 29% 7.0 mph SSW11.3 kmh SSW 10.0 mph16.1 kmh 29.89 in1012.2 mb 0.00 in0.0 mm 0.00 in0.0 mm 0.00 in0.0 mm
12:10 PM 65.8°F18.8°C 32.7°F0.4°C 29% 7.0 mph WSW11.3 kmh WSW 10.0 mph16.1 kmh 29.89 in1012.2 mb 0.00 in0.0 mm 0.00 in0.0 mm 0.00 in0.0 mm
12:12 PM 65.8°F18.8°C 32.7°F0.4°C 29% 5.0 mph S8.0 kmh S 10.0 mph16.1 kmh 29.89 in1012.2 mb 0.00 in0.0 mm 0.00 in0.0 mm 0.00 in0.0 mm
12:14 PM 65.8°F18.8°C 33.5°F0.8°C 30% 7.0 mph SW11.3 kmh SW 10.0 mph16.1 kmh 29.88 in1011.9 mb 0.00 in0.0 mm 0.00 in0.0 mm 0.00 in0.0 mm
12:16 PM 65.9°F18.8°C 32.8°F0.4°C 29% 5.0 mph SW8.0 kmh SW 10.0 mph16.1 kmh 29.88 in1011.9 mb 0.00 in0.0 mm 0.00 in0.0 mm 0.00 in0.0 mm
12:18 PM 66.0°F18.9°C 32.9°F0.5°C 29% 5.0 mph S8.0 kmh S 10.0 mph16.1 kmh 29.88 in1011.9 mb 0.00 in0.0 mm 0.00 in0.0 mm 0.00 in0.0 mm
12:20 PM 66.1°F18.9°C 33.8°F1.0°C 30% 7.0 mph WNW11.3 kmh WNW 10.0 mph16.1 kmh 29.88 in1011.9 mb 0.00 in0.0 mm 0.00 in0.0 mm 0.00 in0.0 mm
12:22 PM 66.3°F19.1°C 33.1°F0.6°C 29% 5.0 mph SW8.0 kmh SW 10.0 mph16.1 kmh 29.88 in1011.9 mb 0.00 in0.0 mm 0.00 in0.0 mm 0.00 in0.0 mm
12:24 PM 66.3°F19.1°C 34.0°F1.1°C 30% 3.0 mph WSW4.8 kmh WSW 10.0 mph16.1 kmh 29.88 in1011.9 mb 0.00 in0.0 mm 0.00 in0.0 mm 0.00 in0.0 mm
12:26 PM 66.3°F19.1°C 34.0°F1.1°C 30% 1.0 mph W1.6 kmh W 10.0 mph16.1 kmh 29.87 in1011.5 mb 0.00 in0.0 mm 0.00 in0.0 mm 0.00 in0.0 mm
12:28 PM 66.3°F19.1°C 33.1°F0.6°C 29% 5.0 mph SW8.0 kmh SW 10.0 mph16.1 kmh 29.87 in1011.5 mb 0.00 in0.0 mm 0.00 in0.0 mm 0.00 in0.0 mm
12:30 PM 66.4°F19.1°C 34.1°F1.2°C 30% 1.0 mph SW1.6 kmh SW 10.0 mph16.1 kmh 29.87 in1011.5 mb 0.00 in0.0 mm 0.00 in0.0 mm 0.00 in0.0 mm
12:32 PM 66.7°F19.3°C 33.5°F0.8°C 29% 4.0 mph WSW6.4 kmh WSW 10.0 mph16.1 kmh 29.87 in1011.5 mb 0.00 in0.0 mm 0.00 in0.0 mm 0.00 in0.0 mm
12:34 PM 66.8°F19.3°C 33.6°F0.9°C 29% 5.0 mph S8.0 kmh S 8.0 mph12.9 kmh 29.87 in1011.5 mb 0.00 in0.0 mm 0.00 in0.0 mm 0.00 in0.0 mm
12:36 PM 66.9°F19.4°C 34.5°F1.4°C 30% 7.0 mph S11.3 kmh S 8.0 mph12.9 kmh 29.87 in1011.5 mb 0.00 in0.0 mm 0.00 in0.0 mm 0.00 in0.0 mm
12:38 PM 66.9°F19.4°C 33.6°F0.9°C 29% 6.0 mph SW9.7 kmh SW 9.0 mph14.5 kmh 29.87 in1011.5 mb 0.00 in0.0 mm 0.00 in0.0 mm 0.00 in0.0 mm
12:40 PM 66.9°F19.4°C 33.6°F0.9°C 29% 6.0 mph SW9.7 kmh SW 9.0 mph14.5 kmh 29.87 in1011.5 mb 0.00 in0.0 mm 0.00 in0.0 mm 0.00 in0.0 mm
12:42 PM 67.1°F19.5°C 34.7°F1.5°C 30% 4.0 mph WNW6.4 kmh WNW 9.0 mph14.5 kmh 29.87 in1011.5 mb 0.00 in0.0 mm 0.00 in0.0 mm 0.00 in0.0 mm
12:44 PM 67.2°F19.6°C 33.9°F1.1°C 29% 6.0 mph W9.7 kmh W 9.0 mph14.5 kmh 29.87 in1011.5 mb 0.00 in0.0 mm 0.00 in0.0 mm 0.00 in0.0 mm
12:46 PM 67.3°F19.6°C 34.0°F1.1°C 29% 3.0 mph WSW4.8 kmh WSW 9.0 mph14.5 kmh 29.87 in1011.5 mb 0.00 in0.0 mm 0.00 in0.0 mm 0.00 in0.0 mm
12:48 PM 67.3°F19.6°C 34.0°F1.1°C 29% 4.0 mph WSW6.4 kmh WSW 9.0 mph14.5 kmh 29.87 in1011.5 mb 0.00 in0.0 mm 0.00 in0.0 mm 0.00 in0.0 mm
12:50 PM 67.3°F19.6°C 34.0°F1.1°C 29% 2.0 mph NW3.2 kmh NW 9.0 mph14.5 kmh 29.87 in1011.5 mb 0.00 in0.0 mm 0.00 in0.0 mm 0.00 in0.0 mm
12:52 PM 67.4°F19.7°C 34.1°F1.2°C 29% 1.0 mph SW1.6 kmh SW 9.0 mph14.5 kmh 29.86 in1011.2 mb 0.00 in0.0 mm 0.00 in0.0 mm 0.00 in0.0 mm
12:54 PM 67.5°F19.7°C 34.2°F1.2°C 29% Calm Calm 9.0 mph14.5 kmh 29.86 in1011.2 mb 0.00 in0.0 mm 0.00 in0.0 mm 0.00 in0.0 mm
12:56 PM 67.4°F19.7°C 34.9°F1.6°C 30% 6.0 mph SW9.7 kmh SW 12.0 mph19.3 kmh 29.87 in1011.5 mb 0.00 in0.0 mm 0.00 in0.0 mm 0.00 in0.0 mm
12:58 PM 67.4°F19.7°C 34.9°F1.6°C 30% 3.0 mph WSW4.8 kmh WSW 12.0 mph19.3 kmh 29.86 in1011.2 mb 0.00 in0.0 mm 0.00 in0.0 mm 0.00 in0.0 mm
01:00 PM 67.4°F19.7°C 34.9°F1.6°C 30% 4.0 mph SW6.4 kmh SW 12.0 mph19.3 kmh 29.86 in1011.2 mb 0.00 in0.0 mm 0.00 in0.0 mm 0.00 in0.0 mm
01:02 PM 67.7°F19.8°C 35.2°F1.8°C 30% 2.0 mph WSW3.2 kmh WSW 12.0 mph19.3 kmh 29.86 in1011.2 mb 0.00 in0.0 mm 0.00 in0.0 mm 0.00 in0.0 mm
01:04 PM 67.7°F19.8°C 35.2°F1.8°C 30% 3.0 mph S4.8 kmh S 8.0 mph12.9 kmh 29.86 in1011.2 mb 0.00 in0.0 mm 0.00 in0.0 mm 0.00 in0.0 mm
01:06 PM 68.0°F20.0°C 35.4°F1.9°C 30% 4.0 mph SW6.4 kmh SW 9.0 mph14.5 kmh 29.86 in1011.2 mb 0.00 in0.0 mm 0.00 in0.0 mm 0.00 in0.0 mm
01:08 PM 68.2°F20.1°C 34.8°F1.6°C 29% 3.0 mph S4.8 kmh S 9.0 mph14.5 kmh 29.86 in1011.2 mb 0.00 in0.0 mm 0.00 in0.0 mm 0.00 in0.0 mm
01:10 PM 68.4°F20.2°C 34.9°F1.6°C 29% 2.0 mph S3.2 kmh S 9.0 mph14.5 kmh 29.85 in1010.8 mb 0.00 in0.0 mm 0.00 in0.0 mm 0.00 in0.0 mm
01:12 PM 68.6°F20.3°C 36.0°F2.2°C 30% 4.0 mph SSW6.4 kmh SSW 9.0 mph14.5 kmh 29.85 in1010.8 mb 0.00 in0.0 mm 0.00 in0.0 mm 0.00 in0.0 mm
01:14 PM 68.9°F20.5°C 35.4°F1.9°C 29% 5.0 mph WSW8.0 kmh WSW 9.0 mph14.5 kmh 29.84 in1010.5 mb 0.00 in0.0 mm 0.00 in0.0 mm 0.00 in0.0 mm
01:16 PM 68.8°F20.4°C 35.3°F1.8°C 29% 7.0 mph WSW11.3 kmh WSW 9.0 mph14.5 kmh 29.84 in1010.5 mb 0.00 in0.0 mm 0.00 in0.0 mm 0.00 in0.0 mm
01:18 PM 68.8°F20.4°C 34.4°F1.3°C 28% 5.0 mph WSW8.0 kmh WSW 9.0 mph14.5 kmh 29.84 in1010.5 mb 0.00 in0.0 mm 0.00 in0.0 mm 0.00 in0.0 mm
01:20 PM 68.8°F20.4°C 35.3°F1.8°C 29% 3.0 mph SW4.8 kmh SW 9.0 mph14.5 kmh 29.84 in1010.5 mb 0.00 in0.0 mm 0.00 in0.0 mm 0.00 in0.0 mm
01:22 PM 69.0°F20.6°C 35.5°F1.9°C 29% 2.0 mph WSW3.2 kmh WSW 9.0 mph14.5 kmh 29.84 in1010.5 mb 0.00 in0.0 mm 0.00 in0.0 mm 0.00 in0.0 mm
01:24 PM 69.1°F20.6°C 35.5°F1.9°C 29% 6.0 mph S9.7 kmh S 9.0 mph14.5 kmh 29.84 in1010.5 mb 0.00 in0.0 mm 0.00 in0.0 mm 0.00 in0.0 mm
01:26 PM 69.2°F20.7°C 34.7°F1.5°C 28% 9.0 mph WSW14.5 kmh WSW 9.0 mph14.5 kmh 29.84 in1010.5 mb 0.00 in0.0 mm 0.00 in0.0 mm 0.00 in0.0 mm
01:28 PM 69.0°F20.6°C 34.6°F1.4°C 28% 4.0 mph S6.4 kmh S 9.0 mph14.5 kmh 29.84 in1010.5 mb 0.00 in0.0 mm 0.00 in0.0 mm 0.00 in0.0 mm
01:30 PM 69.0°F20.6°C 35.5°F1.9°C 29% 6.0 mph S9.7 kmh S 9.0 mph14.5 kmh 29.83 in1010.2 mb 0.00 in0.0 mm 0.00 in0.0 mm 0.00 in0.0 mm
01:32 PM 68.9°F20.5°C 35.4°F1.9°C 29% 2.0 mph WSW3.2 kmh WSW 9.0 mph14.5 kmh 29.83 in1010.2 mb 0.00 in0.0 mm 0.00 in0.0 mm 0.00 in0.0 mm
01:34 PM 69.0°F20.6°C 35.5°F1.9°C 29% 6.0 mph S9.7 kmh S 9.0 mph14.5 kmh 29.83 in1010.2 mb 0.00 in0.0 mm 0.00 in0.0 mm 0.00 in0.0 mm
01:36 PM 69.2°F20.7°C 35.6°F2.0°C 29% 5.0 mph S8.0 kmh S 9.0 mph14.5 kmh 29.83 in1010.2 mb 0.00 in0.0 mm 0.00 in0.0 mm 0.00 in0.0 mm
01:38 PM 69.2°F20.7°C 35.6°F2.0°C 29% 5.0 mph WSW8.0 kmh WSW 9.0 mph14.5 kmh 29.83 in1010.2 mb 0.00 in0.0 mm 0.00 in0.0 mm 0.00 in0.0 mm
01:40 PM 69.3°F20.7°C 34.8°F1.6°C 28% 1.0 mph SW1.6 kmh SW 9.0 mph14.5 kmh 29.83 in1010.2 mb 0.00 in0.0 mm 0.00 in0.0 mm 0.00 in0.0 mm
01:42 PM 69.4°F20.8°C 35.8°F2.1°C 29% 5.0 mph SSW8.0 kmh SSW 9.0 mph14.5 kmh 29.83 in1010.2 mb 0.00 in0.0 mm 0.00 in0.0 mm 0.00 in0.0 mm
01:44 PM 69.4°F20.8°C 35.8°F2.1°C 29% 6.0 mph SW9.7 kmh SW 9.0 mph14.5 kmh 29.83 in1010.2 mb 0.00 in0.0 mm 0.00 in0.0 mm 0.00 in0.0 mm
01:46 PM 69.5°F20.8°C 35.0°F1.7°C 28% 6.0 mph SW9.7 kmh SW 10.0 mph16.1 kmh 29.83 in1010.2 mb 0.00 in0.0 mm 0.00 in0.0 mm 0.00 in0.0 mm
01:48 PM 69.6°F20.9°C 35.1°F1.7°C 28% 7.0 mph S11.3 kmh S 10.0 mph16.1 kmh 29.83 in1010.2 mb 0.00 in0.0 mm 0.00 in0.0 mm 0.00 in0.0 mm
01:50 PM 69.6°F20.9°C 35.1°F1.7°C 28% 9.0 mph SSW14.5 kmh SSW 10.0 mph16.1 kmh 29.83 in1010.2 mb 0.00 in0.0 mm 0.00 in0.0 mm 0.00 in0.0 mm
01:52 PM 69.4°F20.8°C 34.0°F1.1°C 27% 1.0 mph S1.6 kmh S 10.0 mph16.1 kmh 29.83 in1010.2 mb 0.00 in0.0 mm 0.00 in0.0 mm 0.00 in0.0 mm
01:54 PM 69.4°F20.8°C 34.9°F1.6°C 28% 5.0 mph S8.0 kmh S 10.0 mph16.1 kmh 29.83 in1010.2 mb 0.00 in0.0 mm 0.00 in0.0 mm 0.00 in0.0 mm
01:56 PM 69.5°F20.8°C 35.0°F1.7°C 28% 10.0 mph S16.1 kmh S 10.0 mph16.1 kmh 29.82 in1009.8 mb 0.00 in0.0 mm 0.00 in0.0 mm 0.00 in0.0 mm
01:58 PM 69.7°F20.9°C 35.2°F1.8°C 28% 6.0 mph S9.7 kmh S 10.0 mph16.1 kmh 29.82 in1009.8 mb 0.00 in0.0 mm 0.00 in0.0 mm 0.00 in0.0 mm
02:00 PM 69.7°F20.9°C 35.2°F1.8°C 28% 6.0 mph S9.7 kmh S 10.0 mph16.1 kmh 29.82 in1009.8 mb 0.00 in0.0 mm 0.00 in0.0 mm 0.00 in0.0 mm
02:02 PM 69.6°F20.9°C 34.2°F1.2°C 27% 5.0 mph SSE8.0 kmh SSE 10.0 mph16.1 kmh 29.82 in1009.8 mb 0.00 in0.0 mm 0.00 in0.0 mm 0.00 in0.0 mm
02:04 PM 69.6°F20.9°C 35.1°F1.7°C 28% 5.0 mph SSW8.0 kmh SSW 9.0 mph14.5 kmh 29.82 in1009.8 mb 0.00 in0.0 mm 0.00 in0.0 mm 0.00 in0.0 mm
02:06 PM 69.7°F20.9°C 35.2°F1.8°C 28% 7.0 mph SW11.3 kmh SW 11.0 mph17.7 kmh 29.82 in1009.8 mb 0.00 in0.0 mm 0.00 in0.0 mm 0.00 in0.0 mm
02:08 PM 69.7°F20.9°C 35.2°F1.8°C 28% 4.0 mph SW6.4 kmh SW 12.0 mph19.3 kmh 29.82 in1009.8 mb 0.00 in0.0 mm 0.00 in0.0 mm 0.00 in0.0 mm
02:10 PM 69.6°F20.9°C 35.1°F1.7°C 28% Calm Calm 12.0 mph19.3 kmh 29.82 in1009.8 mb 0.00 in0.0 mm 0.00 in0.0 mm 0.00 in0.0 mm
02:12 PM 69.6°F20.9°C 35.1°F1.7°C 28% 7.0 mph S11.3 kmh S 12.0 mph19.3 kmh 29.82 in1009.8 mb 0.00 in0.0 mm 0.00 in0.0 mm 0.00 in0.0 mm
02:14 PM 69.6°F20.9°C 34.2°F1.2°C 27% 1.0 mph SSW1.6 kmh SSW 12.0 mph19.3 kmh 29.82 in1009.8 mb 0.00 in0.0 mm 0.00 in0.0 mm 0.00 in0.0 mm
02:16 PM 69.7°F20.9°C 35.2°F1.8°C 28% 3.0 mph SSW4.8 kmh SSW 12.0 mph19.3 kmh 29.81 in1009.5 mb 0.00 in0.0 mm 0.00 in0.0 mm 0.00 in0.0 mm
02:18 PM 69.9°F21.1°C 34.4°F1.3°C 27% 10.0 mph SW16.1 kmh SW 12.0 mph19.3 kmh 29.81 in1009.5 mb 0.00 in0.0 mm 0.00 in0.0 mm 0.00 in0.0 mm
02:20 PM 69.8°F21.0°C 35.3°F1.8°C 28% 9.0 mph WSW14.5 kmh WSW 12.0 mph19.3 kmh 29.81 in1009.5 mb 0.00 in0.0 mm 0.00 in0.0 mm 0.00 in0.0 mm
02:22 PM 69.9°F21.1°C 35.3°F1.8°C 28% 6.0 mph SW9.7 kmh SW 12.0 mph19.3 kmh 29.81 in1009.5 mb 0.00 in0.0 mm 0.00 in0.0 mm 0.00 in0.0 mm
02:24 PM 70.0°F21.1°C 35.4°F1.9°C 28% 7.0 mph SW11.3 kmh SW 12.0 mph19.3 kmh 29.80 in1009.1 mb 0.00 in0.0 mm 0.00 in0.0 mm 0.00 in0.0 mm
02:26 PM 70.1°F21.2°C 35.5°F1.9°C 28% 4.0 mph SW6.4 kmh SW 12.0 mph19.3 kmh 29.80 in1009.1 mb 0.00 in0.0 mm 0.00 in0.0 mm 0.00 in0.0 mm
02:28 PM 70.1°F21.2°C 34.6°F1.4°C 27% 4.0 mph S6.4 kmh S 12.0 mph19.3 kmh 29.80 in1009.1 mb 0.00 in0.0 mm 0.00 in0.0 mm 0.00 in0.0 mm
02:30 PM 70.3°F21.3°C 35.7°F2.1°C 28% 3.0 mph SSW4.8 kmh SSW 12.0 mph19.3 kmh 29.80 in1009.1 mb 0.00 in0.0 mm 0.00 in0.0 mm 0.00 in0.0 mm
02:32 PM 70.4°F21.3°C 34.9°F1.6°C 27% 7.0 mph S11.3 kmh S 12.0 mph19.3 kmh 29.80 in1009.1 mb 0.00 in0.0 mm 0.00 in0.0 mm 0.00 in0.0 mm
02:34 PM 70.4°F21.3°C 34.9°F1.6°C 27% 6.0 mph S9.7 kmh S 7.0 mph11.3 kmh 29.80 in1009.1 mb 0.00 in0.0 mm 0.00 in0.0 mm 0.00 in0.0 mm
02:36 PM 70.2°F21.2°C 34.7°F1.5°C 27% 8.0 mph S12.9 kmh S 8.0 mph12.9 kmh 29.80 in1009.1 mb 0.00 in0.0 mm 0.00 in0.0 mm 0.00 in0.0 mm
02:38 PM 70.2°F21.2°C 35.6°F2.0°C 28% 1.0 mph SE1.6 kmh SE 8.0 mph12.9 kmh 29.80 in1009.1 mb 0.00 in0.0 mm 0.00 in0.0 mm 0.00 in0.0 mm
02:40 PM 70.5°F21.4°C 35.9°F2.2°C 28% 6.0 mph S9.7 kmh S 8.0 mph12.9 kmh 29.80 in1009.1 mb 0.00 in0.0 mm 0.00 in0.0 mm 0.00 in0.0 mm
02:42 PM 70.6°F21.4°C 35.0°F1.7°C 27% 5.0 mph SW8.0 kmh SW 9.0 mph14.5 kmh 29.80 in1009.1 mb 0.00 in0.0 mm 0.00 in0.0 mm 0.00 in0.0 mm
02:44 PM 70.6°F21.4°C 35.9°F2.2°C 28% 4.0 mph WSW6.4 kmh WSW 9.0 mph14.5 kmh 29.80 in1009.1 mb 0.00 in0.0 mm 0.00 in0.0 mm 0.00 in0.0 mm
02:46 PM 70.8°F21.6°C 36.1°F2.3°C 28% 6.0 mph SE9.7 kmh SE 10.0 mph16.1 kmh 29.80 in1009.1 mb 0.00 in0.0 mm 0.00 in0.0 mm 0.00 in0.0 mm
02:48 PM 71.0°F21.7°C 36.3°F2.4°C 28% 5.0 mph SSW8.0 kmh SSW 10.0 mph16.1 kmh 29.80 in1009.1 mb 0.00 in0.0 mm 0.00 in0.0 mm 0.00 in0.0 mm
02:50 PM 71.0°F21.7°C 35.4°F1.9°C 27% 7.0 mph SW11.3 kmh SW 10.0 mph16.1 kmh 29.80 in1009.1 mb 0.00 in0.0 mm 0.00 in0.0 mm 0.00 in0.0 mm
02:53 PM 70.7°F21.5°C 35.1°F1.7°C 27% 5.0 mph S8.0 kmh S 10.0 mph16.1 kmh 29.80 in1009.1 mb 0.00 in0.0 mm 0.00 in0.0 mm 0.00 in0.0 mm
02:56 PM 70.8°F21.6°C 36.1°F2.3°C 28% 4.0 mph S6.4 kmh S 10.0 mph16.1 kmh 29.79 in1008.8 mb 0.00 in0.0 mm 0.00 in0.0 mm 0.00 in0.0 mm
02:58 PM 71.0°F21.7°C 35.4°F1.9°C 27% 8.0 mph SW12.9 kmh SW 11.0 mph17.7 kmh 29.79 in1008.8 mb 0.00 in0.0 mm 0.00 in0.0 mm 0.00 in0.0 mm
03:00 PM 71.1°F21.7°C 36.4°F2.4°C 28% 3.0 mph SW4.8 kmh SW 11.0 mph17.7 kmh 29.79 in1008.8 mb 0.00 in0.0 mm 0.00 in0.0 mm 0.00 in0.0 mm
03:02 PM 71.2°F21.8°C 36.5°F2.5°C 28% 4.0 mph SSW6.4 kmh SSW 11.0 mph17.7 kmh 29.79 in1008.8 mb 0.00 in0.0 mm 0.00 in0.0 mm 0.00 in0.0 mm
03:04 PM 71.2°F21.8°C 36.5°F2.5°C 28% 3.0 mph SSW4.8 kmh SSW 9.0 mph14.5 kmh 29.79 in1008.8 mb 0.00 in0.0 mm 0.00 in0.0 mm 0.00 in0.0 mm
03:06 PM 71.1°F21.7°C 36.4°F2.4°C 28% 10.0 mph SW16.1 kmh SW 10.0 mph16.1 kmh 29.79 in1008.8 mb 0.00 in0.0 mm 0.00 in0.0 mm 0.00 in0.0 mm
03:08 PM 71.1°F21.7°C 36.4°F2.4°C 28% 6.0 mph SW9.7 kmh SW 10.0 mph16.1 kmh 29.79 in1008.8 mb 0.00 in0.0 mm 0.00 in0.0 mm 0.00 in0.0 mm
03:10 PM 71.1°F21.7°C 36.4°F2.4°C 28% 5.0 mph SSW8.0 kmh SSW 10.0 mph16.1 kmh 29.78 in1008.5 mb 0.00 in0.0 mm 0.00 in0.0 mm 0.00 in0.0 mm
03:12 PM 71.2°F21.8°C 36.5°F2.5°C 28% 4.0 mph SSW6.4 kmh SSW 10.0 mph16.1 kmh 29.78 in1008.5 mb 0.00 in0.0 mm 0.00 in0.0 mm 0.00 in0.0 mm
03:14 PM 71.2°F21.8°C 36.5°F2.5°C 28% 2.0 mph SW3.2 kmh SW 10.0 mph16.1 kmh 29.78 in1008.5 mb 0.00 in0.0 mm 0.00 in0.0 mm 0.00 in0.0 mm
03:16 PM 71.2°F21.8°C 36.5°F2.5°C 28% 3.0 mph WSW4.8 kmh WSW 10.0 mph16.1 kmh 29.78 in1008.5 mb 0.00 in0.0 mm 0.00 in0.0 mm 0.00 in0.0 mm
03:18 PM 71.3°F21.8°C 36.5°F2.5°C 28% 7.0 mph SW11.3 kmh SW 10.0 mph16.1 kmh 29.78 in1008.5 mb 0.00 in0.0 mm 0.00 in0.0 mm 0.00 in0.0 mm
03:20 PM 71.4°F21.9°C 36.6°F2.6°C 28% 3.0 mph SW4.8 kmh SW 10.0 mph16.1 kmh 29.78 in1008.5 mb 0.00 in0.0 mm 0.00 in0.0 mm 0.00 in0.0 mm
03:22 PM 71.5°F21.9°C 36.7°F2.6°C 28% 8.0 mph SW12.9 kmh SW 10.0 mph16.1 kmh 29.78 in1008.5 mb 0.00 in0.0 mm 0.00 in0.0 mm 0.00 in0.0 mm
03:24 PM 71.5°F21.9°C 36.7°F2.6°C 28% 6.0 mph SSW9.7 kmh SSW 10.0 mph16.1 kmh 29.78 in1008.5 mb 0.00 in0.0 mm 0.00 in0.0 mm 0.00 in0.0 mm
03:25 PM 71.5°F21.9°C 36.7°F2.6°C 28% 3.0 mph SW4.8 kmh SW 10.0 mph16.1 kmh 29.78 in1008.5 mb 0.00 in0.0 mm 0.00 in0.0 mm 0.00 in0.0 mm
03:28 PM 71.6°F22.0°C 36.8°F2.7°C 28% 4.0 mph SW6.4 kmh SW 10.0 mph16.1 kmh 29.78 in1008.5 mb 0.00 in0.0 mm 0.00 in0.0 mm 0.00 in0.0 mm
03:30 PM 71.6°F22.0°C 36.8°F2.7°C 28% 8.0 mph WSW12.9 kmh WSW 10.0 mph16.1 kmh 29.78 in1008.5 mb 0.00 in0.0 mm 0.00 in0.0 mm 0.00 in0.0 mm
03:32 PM 71.5°F21.9°C 36.7°F2.6°C 28% 7.0 mph SW11.3 kmh SW 12.0 mph19.3 kmh 29.78 in1008.5 mb 0.00 in0.0 mm 0.00 in0.0 mm 0.00 in0.0 mm
03:34 PM 71.4°F21.9°C 36.6°F2.6°C 28% 5.0 mph WSW8.0 kmh WSW 10.0 mph16.1 kmh 29.78 in1008.5 mb 0.00 in0.0 mm 0.00 in0.0 mm 0.00 in0.0 mm
03:36 PM 71.2°F21.8°C 36.5°F2.5°C 28% 4.0 mph S6.4 kmh S 10.0 mph16.1 kmh 29.78 in1008.5 mb 0.00 in0.0 mm 0.00 in0.0 mm 0.00 in0.0 mm
03:38 PM 71.2°F21.8°C 36.5°F2.5°C 28% 3.0 mph SW4.8 kmh SW 10.0 mph16.1 kmh 29.78 in1008.5 mb 0.00 in0.0 mm 0.00 in0.0 mm 0.00 in0.0 mm
03:40 PM 71.4°F21.9°C 37.5°F3.1°C 29% 3.0 mph SW4.8 kmh SW 10.0 mph16.1 kmh 29.77 in1008.1 mb 0.00 in0.0 mm 0.00 in0.0 mm 0.00 in0.0 mm
03:42 PM 71.6°F22.0°C 37.7°F3.2°C 29% 3.0 mph SW4.8 kmh SW 10.0 mph16.1 kmh 29.78 in1008.5 mb 0.00 in0.0 mm 0.00 in0.0 mm 0.00 in0.0 mm
03:44 PM 71.7°F22.1°C 36.9°F2.7°C 28% 11.0 mph SW17.7 kmh SW 11.0 mph17.7 kmh 29.78 in1008.5 mb 0.00 in0.0 mm 0.00 in0.0 mm 0.00 in0.0 mm
03:46 PM 71.5°F21.9°C 36.7°F2.6°C 28% 6.0 mph SW9.7 kmh SW 12.0 mph19.3 kmh 29.78 in1008.5 mb 0.00 in0.0 mm 0.00 in0.0 mm 0.00 in0.0 mm
03:48 PM 71.4°F21.9°C 36.6°F2.6°C 28% 6.0 mph SSW9.7 kmh SSW 12.0 mph19.3 kmh 29.78 in1008.5 mb 0.00 in0.0 mm 0.00 in0.0 mm 0.00 in0.0 mm
03:50 PM 71.4°F21.9°C 37.5°F3.1°C 29% 4.0 mph S6.4 kmh S 12.0 mph19.3 kmh 29.78 in1008.5 mb 0.00 in0.0 mm 0.00 in0.0 mm 0.00 in0.0 mm
03:52 PM 71.4°F21.9°C 37.5°F3.1°C 29% 5.0 mph SW8.0 kmh SW 12.0 mph19.3 kmh 29.78 in1008.5 mb 0.00 in0.0 mm 0.00 in0.0 mm 0.00 in0.0 mm
03:54 PM 71.5°F21.9°C 37.6°F3.1°C 29% 6.0 mph SSW9.7 kmh SSW 12.0 mph19.3 kmh 29.78 in1008.5 mb 0.00 in0.0 mm 0.00 in0.0 mm 0.00 in0.0 mm
03:56 PM 71.5°F21.9°C 36.7°F2.6°C 28% 7.0 mph SSW11.3 kmh SSW 12.0 mph19.3 kmh 29.78 in1008.5 mb 0.00 in0.0 mm 0.00 in0.0 mm 0.00 in0.0 mm
03:58 PM 71.5°F21.9°C 37.6°F3.1°C 29% 8.0 mph SSW12.9 kmh SSW 12.0 mph19.3 kmh 29.78 in1008.5 mb 0.00 in0.0 mm 0.00 in0.0 mm 0.00 in0.0 mm
04:00 PM 71.5°F21.9°C 37.6°F3.1°C 29% 3.0 mph SSW4.8 kmh SSW 12.0 mph19.3 kmh 29.78 in1008.5 mb 0.00 in0.0 mm 0.00 in0.0 mm 0.00 in0.0 mm
04:02 PM 71.5°F21.9°C 36.7°F2.6°C 28% 3.0 mph S4.8 kmh S 12.0 mph19.3 kmh 29.78 in1008.5 mb 0.00 in0.0 mm 0.00 in0.0 mm 0.00 in0.0 mm
04:04 PM 71.5°F21.9°C 37.6°F3.1°C 29% 6.0 mph S9.7 kmh S 6.0 mph9.7 kmh 29.78 in1008.5 mb 0.00 in0.0 mm 0.00 in0.0 mm 0.00 in0.0 mm
04:06 PM 71.6°F22.0°C 37.7°F3.2°C 29% 3.0 mph SW4.8 kmh SW 11.0 mph17.7 kmh 29.78 in1008.5 mb 0.00 in0.0 mm 0.00 in0.0 mm 0.00 in0.0 mm
04:08 PM 71.6°F22.0°C 37.7°F3.2°C 29% 6.0 mph SW9.7 kmh SW 11.0 mph17.7 kmh 29.78 in1008.5 mb 0.00 in0.0 mm 0.00 in0.0 mm 0.00 in0.0 mm
04:10 PM 71.6°F22.0°C 37.7°F3.2°C 29% 6.0 mph SW9.7 kmh SW 11.0 mph17.7 kmh 29.78 in1008.5 mb 0.00 in0.0 mm 0.00 in0.0 mm 0.00 in0.0 mm
04:12 PM 71.5°F21.9°C 37.6°F3.1°C 29% 5.0 mph SW8.0 kmh SW 11.0 mph17.7 kmh 29.78 in1008.5 mb 0.00 in0.0 mm 0.00 in0.0 mm 0.00 in0.0 mm
04:14 PM 71.5°F21.9°C 37.6°F3.1°C 29% 5.0 mph SW8.0 kmh SW 11.0 mph17.7 kmh 29.79 in1008.8 mb 0.00 in0.0 mm 0.00 in0.0 mm 0.00 in0.0 mm
04:16 PM 71.6°F22.0°C 37.7°F3.2°C 29% Calm Calm 11.0 mph17.7 kmh 29.78 in1008.5 mb 0.00 in0.0 mm 0.00 in0.0 mm 0.00 in0.0 mm
04:18 PM 71.6°F22.0°C 37.7°F3.2°C 29% 9.0 mph S14.5 kmh S 11.0 mph17.7 kmh 29.79 in1008.8 mb 0.00 in0.0 mm 0.00 in0.0 mm 0.00 in0.0 mm
04:20 PM 71.6°F22.0°C 37.7°F3.2°C 29% 3.0 mph SW4.8 kmh SW 11.0 mph17.7 kmh 29.78 in1008.5 mb 0.00 in0.0 mm 0.00 in0.0 mm 0.00 in0.0 mm
04:22 PM 71.6°F22.0°C 37.7°F3.2°C 29% 4.0 mph SSW6.4 kmh SSW 11.0 mph17.7 kmh 29.78 in1008.5 mb 0.00 in0.0 mm 0.00 in0.0 mm 0.00 in0.0 mm
04:24 PM 71.5°F21.9°C 37.6°F3.1°C 29% 7.0 mph SW11.3 kmh SW 11.0 mph17.7 kmh 29.78 in1008.5 mb 0.00 in0.0 mm 0.00 in0.0 mm 0.00 in0.0 mm
04:26 PM 71.4°F21.9°C 37.5°F3.1°C 29% 3.0 mph SW4.8 kmh SW 11.0 mph17.7 kmh 29.78 in1008.5 mb 0.00 in0.0 mm 0.00 in0.0 mm 0.00 in0.0 mm
04:28 PM 71.4°F21.9°C 37.5°F3.1°C 29% 3.0 mph SW4.8 kmh SW 11.0 mph17.7 kmh 29.78 in1008.5 mb 0.00 in0.0 mm 0.00 in0.0 mm 0.00 in0.0 mm
04:30 PM 71.5°F21.9°C 38.5°F3.6°C 30% 5.0 mph SW8.0 kmh SW 11.0 mph17.7 kmh 29.78 in1008.5 mb 0.00 in0.0 mm 0.00 in0.0 mm 0.00 in0.0 mm
04:32 PM 71.5°F21.9°C 37.6°F3.1°C 29% 3.0 mph SSW4.8 kmh SSW 11.0 mph17.7 kmh 29.78 in1008.5 mb 0.00 in0.0 mm 0.00 in0.0 mm 0.00 in0.0 mm
04:34 PM 71.6°F22.0°C 37.7°F3.2°C 29% 2.0 mph SW3.2 kmh SW 4.0 mph6.4 kmh 29.78 in1008.5 mb 0.00 in0.0 mm 0.00 in0.0 mm 0.00 in0.0 mm
04:36 PM 71.6°F22.0°C 38.6°F3.7°C 30% 4.0 mph S6.4 kmh S 5.0 mph8.0 kmh 29.78 in1008.5 mb 0.00 in0.0 mm 0.00 in0.0 mm 0.00 in0.0 mm
04:38 PM 71.6°F22.0°C 37.7°F3.2°C 29% 6.0 mph S9.7 kmh S 6.0 mph9.7 kmh 29.78 in1008.5 mb 0.00 in0.0 mm 0.00 in0.0 mm 0.00 in0.0 mm
04:40 PM 71.5°F21.9°C 38.5°F3.6°C 30% 5.0 mph SW8.0 kmh SW 7.0 mph11.3 kmh 29.78 in1008.5 mb 0.00 in0.0 mm 0.00 in0.0 mm 0.00 in0.0 mm
04:42 PM 71.5°F21.9°C 37.6°F3.1°C 29% 2.0 mph SW3.2 kmh SW 7.0 mph11.3 kmh 29.78 in1008.5 mb 0.00 in0.0 mm 0.00 in0.0 mm 0.00 in0.0 mm
04:44 PM 71.4°F21.9°C 37.5°F3.1°C 29% 5.0 mph S8.0 kmh S 7.0 mph11.3 kmh 29.78 in1008.5 mb 0.00 in0.0 mm 0.00 in0.0 mm 0.00 in0.0 mm
04:46 PM 71.4°F21.9°C 37.5°F3.1°C 29% 7.0 mph SSW11.3 kmh SSW 9.0 mph14.5 kmh 29.78 in1008.5 mb 0.00 in0.0 mm 0.00 in0.0 mm 0.00 in0.0 mm
04:48 PM 71.3°F21.8°C 37.4°F3.0°C 29% 5.0 mph SSW8.0 kmh SSW 9.0 mph14.5 kmh 29.78 in1008.5 mb 0.00 in0.0 mm 0.00 in0.0 mm 0.00 in0.0 mm
04:50 PM 71.2°F21.8°C 38.2°F3.4°C 30% 3.0 mph SW4.8 kmh SW 9.0 mph14.5 kmh 29.78 in1008.5 mb 0.00 in0.0 mm 0.00 in0.0 mm 0.00 in0.0 mm
04:52 PM 71.2°F21.8°C 38.2°F3.4°C 30% 3.0 mph SW4.8 kmh SW 9.0 mph14.5 kmh 29.78 in1008.5 mb 0.00 in0.0 mm 0.00 in0.0 mm 0.00 in0.0 mm
04:54 PM 71.2°F21.8°C 38.2°F3.4°C 30% 6.0 mph SW9.7 kmh SW 9.0 mph14.5 kmh 29.79 in1008.8 mb 0.00 in0.0 mm 0.00 in0.0 mm 0.00 in0.0 mm
04:55 PM 71.1°F21.7°C 38.1°F3.4°C 30% 3.0 mph S4.8 kmh S 9.0 mph14.5 kmh 29.79 in1008.8 mb 0.00 in0.0 mm 0.00 in0.0 mm 0.00 in0.0 mm
04:58 PM 71.1°F21.7°C 38.1°F3.4°C 30% 5.0 mph SW8.0 kmh SW 9.0 mph14.5 kmh 29.79 in1008.8 mb 0.00 in0.0 mm 0.00 in0.0 mm 0.00 in0.0 mm
05:00 PM 71.0°F21.7°C 38.0°F3.3°C 30% 5.0 mph SSW8.0 kmh SSW 9.0 mph14.5 kmh 29.79 in1008.8 mb 0.00 in0.0 mm 0.00 in0.0 mm 0.00 in0.0 mm
05:02 PM 70.8°F21.6°C 37.9°F3.3°C 30% 4.0 mph SW6.4 kmh SW 9.0 mph14.5 kmh 29.79 in1008.8 mb 0.00 in0.0 mm 0.00 in0.0 mm 0.00 in0.0 mm
05:04 PM 70.7°F21.5°C 37.8°F3.2°C 30% 5.0 mph SW8.0 kmh SW 5.0 mph8.0 kmh 29.79 in1008.8 mb 0.00 in0.0 mm 0.00 in0.0 mm 0.00 in0.0 mm
05:06 PM 70.6°F21.4°C 38.5°F3.6°C 31% 3.0 mph SSW4.8 kmh SSW 6.0 mph9.7 kmh 29.79 in1008.8 mb 0.00 in0.0 mm 0.00 in0.0 mm 0.00 in0.0 mm
05:08 PM 70.4°F21.3°C 38.4°F3.6°C 31% 1.0 mph SSW1.6 kmh SSW 6.0 mph9.7 kmh 29.79 in1008.8 mb 0.00 in0.0 mm 0.00 in0.0 mm 0.00 in0.0 mm
05:10 PM 70.4°F21.3°C 38.4°F3.6°C 31% 2.0 mph SSW3.2 kmh SSW 6.0 mph9.7 kmh 29.80 in1009.1 mb 0.00 in0.0 mm 0.00 in0.0 mm 0.00 in0.0 mm
05:12 PM 70.3°F21.3°C 38.3°F3.5°C 31% 4.0 mph SSW6.4 kmh SSW 6.0 mph9.7 kmh 29.80 in1009.1 mb 0.00 in0.0 mm 0.00 in0.0 mm 0.00 in0.0 mm
05:14 PM 70.1°F21.2°C 38.1°F3.4°C 31% 1.0 mph SSW1.6 kmh SSW 6.0 mph9.7 kmh 29.80 in1009.1 mb 0.00 in0.0 mm 0.00 in0.0 mm 0.00 in0.0 mm
05:16 PM 70.0°F21.1°C 38.0°F3.3°C 31% 2.0 mph SSW3.2 kmh SSW 6.0 mph9.7 kmh 29.80 in1009.1 mb 0.00 in0.0 mm 0.00 in0.0 mm 0.00 in0.0 mm
05:18 PM 69.9°F21.1°C 37.9°F3.3°C 31% 4.0 mph SSW6.4 kmh SSW 6.0 mph9.7 kmh 29.80 in1009.1 mb 0.00 in0.0 mm 0.00 in0.0 mm 0.00 in0.0 mm
05:20 PM 69.7°F20.9°C 38.6°F3.7°C 32% 3.0 mph SSW4.8 kmh SSW 6.0 mph9.7 kmh 29.80 in1009.1 mb 0.00 in0.0 mm 0.00 in0.0 mm 0.00 in0.0 mm
05:22 PM 69.6°F20.9°C 38.5°F3.6°C 32% 1.0 mph SSW1.6 kmh SSW 6.0 mph9.7 kmh 29.80 in1009.1 mb 0.00 in0.0 mm 0.00 in0.0 mm 0.00 in0.0 mm
05:24 PM 69.5°F20.8°C 38.4°F3.6°C 32% 2.0 mph SSW3.2 kmh SSW 6.0 mph9.7 kmh 29.80 in1009.1 mb 0.00 in0.0 mm 0.00 in0.0 mm 0.00 in0.0 mm
05:26 PM 69.4°F20.8°C 38.3°F3.5°C 32% 3.0 mph SSW4.8 kmh SSW 6.0 mph9.7 kmh 29.80 in1009.1 mb 0.00 in0.0 mm 0.00 in0.0 mm 0.00 in0.0 mm
05:28 PM 69.2°F20.7°C 38.1°F3.4°C 32% 3.0 mph SSW4.8 kmh SSW 6.0 mph9.7 kmh 29.80 in1009.1 mb 0.00 in0.0 mm 0.00 in0.0 mm 0.00 in0.0 mm
05:30 PM 69.0°F20.6°C 38.7°F3.7°C 33% 2.0 mph SSW3.2 kmh SSW 6.0 mph9.7 kmh 29.80 in1009.1 mb 0.00 in0.0 mm 0.00 in0.0 mm 0.00 in0.0 mm
05:32 PM 68.9°F20.5°C 38.6°F3.7°C 33% 3.0 mph SSW4.8 kmh SSW 6.0 mph9.7 kmh 29.80 in1009.1 mb 0.00 in0.0 mm 0.00 in0.0 mm 0.00 in0.0 mm
05:34 PM 68.7°F20.4°C 38.5°F3.6°C 33% 3.0 mph SSW4.8 kmh SSW 4.0 mph6.4 kmh 29.80 in1009.1 mb 0.00 in0.0 mm 0.00 in0.0 mm 0.00 in0.0 mm
05:36 PM 68.6°F20.3°C 38.4°F3.6°C 33% 3.0 mph SSW4.8 kmh SSW 4.0 mph6.4 kmh 29.79 in1008.8 mb 0.00 in0.0 mm 0.00 in0.0 mm 0.00 in0.0 mm
05:38 PM 68.4°F20.2°C 38.2°F3.4°C 33% 3.0 mph SSW4.8 kmh SSW 4.0 mph6.4 kmh 29.80 in1009.1 mb 0.00 in0.0 mm 0.00 in0.0 mm 0.00 in0.0 mm
05:40 PM 68.2°F20.1°C 38.0°F3.3°C 33% 3.0 mph SSW4.8 kmh SSW 4.0 mph6.4 kmh 29.79 in1008.8 mb 0.00 in0.0 mm 0.00 in0.0 mm 0.00 in0.0 mm
05:42 PM 68.1°F20.1°C 38.7°F3.7°C 34% 3.0 mph SSW4.8 kmh SSW 4.0 mph6.4 kmh 29.79 in1008.8 mb 0.00 in0.0 mm 0.00 in0.0 mm 0.00 in0.0 mm
05:44 PM 67.9°F19.9°C 38.5°F3.6°C 34% 3.0 mph S4.8 kmh S 4.0 mph6.4 kmh 29.79 in1008.8 mb 0.00 in0.0 mm 0.00 in0.0 mm 0.00 in0.0 mm
05:46 PM 67.8°F19.9°C 38.4°F3.6°C 34% 3.0 mph S4.8 kmh S 4.0 mph6.4 kmh 29.79 in1008.8 mb 0.00 in0.0 mm 0.00 in0.0 mm 0.00 in0.0 mm
05:48 PM 67.7°F19.8°C 38.4°F3.6°C 34% 3.0 mph S4.8 kmh S 4.0 mph6.4 kmh 29.79 in1008.8 mb 0.00 in0.0 mm 0.00 in0.0 mm 0.00 in0.0 mm
05:50 PM 67.6°F19.8°C 38.3°F3.5°C 34% 2.0 mph S3.2 kmh S 4.0 mph6.4 kmh 29.79 in1008.8 mb 0.00 in0.0 mm 0.00 in0.0 mm 0.00 in0.0 mm
05:52 PM 67.4°F19.7°C 38.8°F3.8°C 35% 3.0 mph S4.8 kmh S 4.0 mph6.4 kmh 29.79 in1008.8 mb 0.00 in0.0 mm 0.00 in0.0 mm 0.00 in0.0 mm
05:54 PM 67.3°F19.6°C 38.7°F3.7°C 35% 2.0 mph S3.2 kmh S 4.0 mph6.4 kmh 29.79 in1008.8 mb 0.00 in0.0 mm 0.00 in0.0 mm 0.00 in0.0 mm
05:56 PM 67.2°F19.6°C 38.7°F3.7°C 35% 3.0 mph S4.8 kmh S 4.0 mph6.4 kmh 29.79 in1008.8 mb 0.00 in0.0 mm 0.00 in0.0 mm 0.00 in0.0 mm
05:58 PM 67.1°F19.5°C 38.6°F3.7°C 35% 3.0 mph S4.8 kmh S 4.0 mph6.4 kmh 29.80 in1009.1 mb 0.00 in0.0 mm 0.00 in0.0 mm 0.00 in0.0 mm
06:00 PM 67.1°F19.5°C 38.6°F3.7°C 35% 3.0 mph S4.8 kmh S 4.0 mph6.4 kmh 29.80 in1009.1 mb 0.00 in0.0 mm 0.00 in0.0 mm 0.00 in0.0 mm
06:02 PM 67.0°F19.4°C 38.5°F3.6°C 35% 3.0 mph S4.8 kmh S 4.0 mph6.4 kmh 29.80 in1009.1 mb 0.00 in0.0 mm 0.00 in0.0 mm 0.00 in0.0 mm
06:04 PM 66.9°F19.4°C 38.4°F3.6°C 35% 2.0 mph S3.2 kmh S 4.0 mph6.4 kmh 29.80 in1009.1 mb 0.00 in0.0 mm 0.00 in0.0 mm 0.00 in0.0 mm
06:06 PM 66.8°F19.3°C 38.3°F3.5°C 35% 3.0 mph S4.8 kmh S 4.0 mph6.4 kmh 29.80 in1009.1 mb 0.00 in0.0 mm 0.00 in0.0 mm 0.00 in0.0 mm
06:08 PM 66.8°F19.3°C 38.3°F3.5°C 35% 3.0 mph S4.8 kmh S 4.0 mph6.4 kmh 29.80 in1009.1 mb 0.00 in0.0 mm 0.00 in0.0 mm 0.00 in0.0 mm
06:10 PM 66.7°F19.3°C 38.2°F3.4°C 35% 3.0 mph S4.8 kmh S 5.0 mph8.0 kmh 29.80 in1009.1 mb 0.00 in0.0 mm 0.00 in0.0 mm 0.00 in0.0 mm
06:12 PM 66.7°F19.3°C 38.2°F3.4°C 35% 2.0 mph S3.2 kmh S 5.0 mph8.0 kmh 29.80 in1009.1 mb 0.00 in0.0 mm 0.00 in0.0 mm 0.00 in0.0 mm
06:14 PM 66.6°F19.2°C 38.8°F3.8°C 36% 2.0 mph S3.2 kmh S 5.0 mph8.0 kmh 29.80 in1009.1 mb 0.00 in0.0 mm 0.00 in0.0 mm 0.00 in0.0 mm
06:16 PM 66.5°F19.2°C 38.8°F3.8°C 36% 2.0 mph S3.2 kmh S 5.0 mph8.0 kmh 29.80 in1009.1 mb 0.00 in0.0 mm 0.00 in0.0 mm 0.00 in0.0 mm
06:18 PM 66.4°F19.1°C 38.7°F3.7°C 36% 2.0 mph S3.2 kmh S 5.0 mph8.0 kmh 29.80 in1009.1 mb 0.00 in0.0 mm 0.00 in0.0 mm 0.00 in0.0 mm
06:20 PM 66.4°F19.1°C 38.7°F3.7°C 36% 2.0 mph S3.2 kmh S 5.0 mph8.0 kmh 29.80 in1009.1 mb 0.00 in0.0 mm 0.00 in0.0 mm 0.00 in0.0 mm
06:22 PM 66.3°F19.1°C 38.6°F3.7°C 36% 4.0 mph S6.4 kmh S 5.0 mph8.0 kmh 29.80 in1009.1 mb 0.00 in0.0 mm 0.00 in0.0 mm 0.00 in0.0 mm
06:24 PM 66.2°F19.0°C 38.5°F3.6°C 36% 2.0 mph S3.2 kmh S 5.0 mph8.0 kmh 29.80 in1009.1 mb 0.00 in0.0 mm 0.00 in0.0 mm 0.00 in0.0 mm
06:26 PM 66.1°F18.9°C 38.4°F3.6°C 36% 4.0 mph S6.4 kmh S 5.0 mph8.0 kmh 29.80 in1009.1 mb 0.00 in0.0 mm 0.00 in0.0 mm 0.00 in0.0 mm
06:28 PM 66.1°F18.9°C 38.4°F3.6°C 36% 2.0 mph S3.2 kmh S 5.0 mph8.0 kmh 29.80 in1009.1 mb 0.00 in0.0 mm 0.00 in0.0 mm 0.00 in0.0 mm
06:30 PM 66.0°F18.9°C 38.3°F3.5°C 36% 2.0 mph S3.2 kmh S 5.0 mph8.0 kmh 29.80 in1009.1 mb 0.00 in0.0 mm 0.00 in0.0 mm 0.00 in0.0 mm
06:32 PM 66.0°F18.9°C 38.3°F3.5°C 36% 2.0 mph S3.2 kmh S 5.0 mph8.0 kmh 29.80 in1009.1 mb 0.00 in0.0 mm 0.00 in0.0 mm 0.00 in0.0 mm
06:34 PM 65.9°F18.8°C 38.2°F3.4°C 36% 2.0 mph S3.2 kmh S 5.0 mph8.0 kmh 29.80 in1009.1 mb 0.00 in0.0 mm 0.00 in0.0 mm 0.00 in0.0 mm
06:36 PM 66.0°F18.9°C 38.3°F3.5°C 36% 2.0 mph S3.2 kmh S 5.0 mph8.0 kmh 29.80 in1009.1 mb 0.00 in0.0 mm 0.00 in0.0 mm 0.00 in0.0 mm
06:38 PM 65.9°F18.8°C 38.2°F3.4°C 36% 2.0 mph S3.2 kmh S 5.0 mph8.0 kmh 29.80 in1009.1 mb 0.00 in0.0 mm 0.00 in0.0 mm 0.00 in0.0 mm
06:40 PM 65.9°F18.8°C 38.2°F3.4°C 36% 4.0 mph S6.4 kmh S 5.0 mph8.0 kmh 29.81 in1009.5 mb 0.00 in0.0 mm 0.00 in0.0 mm 0.00 in0.0 mm
06:42 PM 65.8°F18.8°C 38.1°F3.4°C 36% 4.0 mph S6.4 kmh S 5.0 mph8.0 kmh 29.81 in1009.5 mb 0.00 in0.0 mm 0.00 in0.0 mm 0.00 in0.0 mm
06:44 PM 65.8°F18.8°C 38.1°F3.4°C 36% 2.0 mph S3.2 kmh S 5.0 mph8.0 kmh 29.81 in1009.5 mb 0.00 in0.0 mm 0.00 in0.0 mm 0.00 in0.0 mm
06:46 PM 65.7°F18.7°C 38.0°F3.3°C 36% 4.0 mph S6.4 kmh S 5.0 mph8.0 kmh 29.81 in1009.5 mb 0.00 in0.0 mm 0.00 in0.0 mm 0.00 in0.0 mm
06:48 PM 65.7°F18.7°C 38.0°F3.3°C 36% 3.0 mph S4.8 kmh S 5.0 mph8.0 kmh 29.81 in1009.5 mb 0.00 in0.0 mm 0.00 in0.0 mm 0.00 in0.0 mm
06:50 PM 65.6°F18.7°C 38.0°F3.3°C 36% 3.0 mph S4.8 kmh S 5.0 mph8.0 kmh 29.81 in1009.5 mb 0.00 in0.0 mm 0.00 in0.0 mm 0.00 in0.0 mm
06:52 PM 65.6°F18.7°C 38.0°F3.3°C 36% 3.0 mph S4.8 kmh S 5.0 mph8.0 kmh 29.81 in1009.5 mb 0.00 in0.0 mm 0.00 in0.0 mm 0.00 in0.0 mm
06:54 PM 65.6°F18.7°C 38.0°F3.3°C 36% 3.0 mph S4.8 kmh S 5.0 mph8.0 kmh 29.81 in1009.5 mb 0.00 in0.0 mm 0.00 in0.0 mm 0.00 in0.0 mm
06:56 PM 65.6°F18.7°C 38.7°F3.7°C 37% 4.0 mph S6.4 kmh S 5.0 mph8.0 kmh 29.81 in1009.5 mb 0.00 in0.0 mm 0.00 in0.0 mm 0.00 in0.0 mm
06:58 PM 65.5°F18.6°C 38.6°F3.7°C 37% 3.0 mph S4.8 kmh S 5.0 mph8.0 kmh 29.81 in1009.5 mb 0.00 in0.0 mm 0.00 in0.0 mm 0.00 in0.0 mm
07:00 PM 65.3°F18.5°C 38.4°F3.6°C 37% 4.0 mph S6.4 kmh S 5.0 mph8.0 kmh 29.81 in1009.5 mb 0.00 in0.0 mm 0.00 in0.0 mm 0.00 in0.0 mm
07:02 PM 65.3°F18.5°C 38.4°F3.6°C 37% 5.0 mph S8.0 kmh S 5.0 mph8.0 kmh 29.81 in1009.5 mb 0.00 in0.0 mm 0.00 in0.0 mm 0.00 in0.0 mm
07:04 PM 65.2°F18.4°C 38.3°F3.5°C 37% 3.0 mph S4.8 kmh S 5.0 mph8.0 kmh 29.81 in1009.5 mb 0.00 in0.0 mm 0.00 in0.0 mm 0.00 in0.0 mm
07:06 PM 65.1°F18.4°C 38.2°F3.4°C 37% 3.0 mph S4.8 kmh S 5.0 mph8.0 kmh 29.81 in1009.5 mb 0.00 in0.0 mm 0.00 in0.0 mm 0.00 in0.0 mm
07:08 PM 65.0°F18.3°C 38.1°F3.4°C 37% 3.0 mph S4.8 kmh S 5.0 mph8.0 kmh 29.81 in1009.5 mb 0.00 in0.0 mm 0.00 in0.0 mm 0.00 in0.0 mm
07:10 PM 65.0°F18.3°C 38.1°F3.4°C 37% 4.0 mph S6.4 kmh S 5.0 mph8.0 kmh 29.81 in1009.5 mb 0.00 in0.0 mm 0.00 in0.0 mm 0.00 in0.0 mm
07:12 PM 65.0°F18.3°C 38.8°F3.8°C 38% 3.0 mph S4.8 kmh S 5.0 mph8.0 kmh 29.81 in1009.5 mb 0.00 in0.0 mm 0.00 in0.0 mm 0.00 in0.0 mm
07:14 PM 64.8°F18.2°C 38.6°F3.7°C 38% 3.0 mph S4.8 kmh S 5.0 mph8.0 kmh 29.81 in1009.5 mb 0.00 in0.0 mm 0.00 in0.0 mm 0.00 in0.0 mm
07:16 PM 64.8°F18.2°C 38.6°F3.7°C 38% 3.0 mph S4.8 kmh S 5.0 mph8.0 kmh 29.81 in1009.5 mb 0.00 in0.0 mm 0.00 in0.0 mm 0.00 in0.0 mm
07:17 PM 64.7°F18.2°C 38.5°F3.6°C 38% 3.0 mph S4.8 kmh S 6.0 mph9.7 kmh 29.81 in1009.5 mb 0.00 in0.0 mm 0.00 in0.0 mm 0.00 in0.0 mm
07:20 PM 64.6°F18.1°C 38.4°F3.6°C 38% 4.0 mph S6.4 kmh S 6.0 mph9.7 kmh 29.81 in1009.5 mb 0.00 in0.0 mm 0.00 in0.0 mm 0.00 in0.0 mm
07:22 PM 64.5°F18.1°C 38.4°F3.6°C 38% 2.0 mph S3.2 kmh S 6.0 mph9.7 kmh 29.82 in1009.8 mb 0.00 in0.0 mm 0.00 in0.0 mm 0.00 in0.0 mm
07:24 PM 64.4°F18.0°C 38.3°F3.5°C 38% 2.0 mph S3.2 kmh S 6.0 mph9.7 kmh 29.81 in1009.5 mb 0.00 in0.0 mm 0.00 in0.0 mm 0.00 in0.0 mm
07:26 PM 64.2°F17.9°C 38.1°F3.4°C 38% 4.0 mph S6.4 kmh S 6.0 mph9.7 kmh 29.81 in1009.5 mb 0.00 in0.0 mm 0.00 in0.0 mm 0.00 in0.0 mm
07:28 PM 64.1°F17.8°C 38.0°F3.3°C 38% 5.0 mph S8.0 kmh S 6.0 mph9.7 kmh 29.82 in1009.8 mb 0.00 in0.0 mm 0.00 in0.0 mm 0.00 in0.0 mm
07:30 PM 64.1°F17.8°C 38.7°F3.7°C 39% 2.0 mph S3.2 kmh S 6.0 mph9.7 kmh 29.81 in1009.5 mb 0.00 in0.0 mm 0.00 in0.0 mm 0.00 in0.0 mm
07:32 PM 63.9°F17.7°C 38.5°F3.6°C 39% 4.0 mph S6.4 kmh S 6.0 mph9.7 kmh 29.82 in1009.8 mb 0.00 in0.0 mm 0.00 in0.0 mm 0.00 in0.0 mm
07:34 PM 63.9°F17.7°C 38.5°F3.6°C 39% 5.0 mph S8.0 kmh S 5.0 mph8.0 kmh 29.82 in1009.8 mb 0.00 in0.0 mm 0.00 in0.0 mm 0.00 in0.0 mm
07:36 PM 63.8°F17.7°C 38.4°F3.6°C 39% 4.0 mph S6.4 kmh S 5.0 mph8.0 kmh 29.82 in1009.8 mb 0.00 in0.0 mm 0.00 in0.0 mm 0.00 in0.0 mm
07:38 PM 63.7°F17.6°C 38.3°F3.5°C 39% 3.0 mph S4.8 kmh S 5.0 mph8.0 kmh 29.82 in1009.8 mb 0.00 in0.0 mm 0.00 in0.0 mm 0.00 in0.0 mm
07:40 PM 63.6°F17.6°C 38.2°F3.4°C 39% 4.0 mph S6.4 kmh S 5.0 mph8.0 kmh 29.82 in1009.8 mb 0.00 in0.0 mm 0.00 in0.0 mm 0.00 in0.0 mm
07:42 PM 63.5°F17.5°C 38.1°F3.4°C 39% 4.0 mph S6.4 kmh S 5.0 mph8.0 kmh 29.82 in1009.8 mb 0.00 in0.0 mm 0.00 in0.0 mm 0.00 in0.0 mm
07:44 PM 63.4°F17.4°C 38.7°F3.7°C 40% 4.0 mph S6.4 kmh S 5.0 mph8.0 kmh 29.82 in1009.8 mb 0.00 in0.0 mm 0.00 in0.0 mm 0.00 in0.0 mm
07:46 PM 63.2°F17.3°C 38.5°F3.6°C 40% 4.0 mph S6.4 kmh S 5.0 mph8.0 kmh 29.82 in1009.8 mb 0.00 in0.0 mm 0.00 in0.0 mm 0.00 in0.0 mm
07:49 PM 63.0°F17.2°C 38.3°F3.5°C 40% 4.0 mph S6.4 kmh S 5.0 mph8.0 kmh 29.82 in1009.8 mb 0.00 in0.0 mm 0.00 in0.0 mm 0.00 in0.0 mm
07:52 PM 62.9°F17.2°C 38.9°F3.8°C 41% 2.0 mph S3.2 kmh S 5.0 mph8.0 kmh 29.82 in1009.8 mb 0.00 in0.0 mm 0.00 in0.0 mm 0.00 in0.0 mm
07:54 PM 62.9°F17.2°C 38.9°F3.8°C 41% 2.0 mph S3.2 kmh S 5.0 mph8.0 kmh 29.82 in1009.8 mb 0.00 in0.0 mm 0.00 in0.0 mm 0.00 in0.0 mm
07:56 PM 62.7°F17.1°C 38.7°F3.7°C 41% 4.0 mph S6.4 kmh S 5.0 mph8.0 kmh 29.82 in1009.8 mb 0.00 in0.0 mm 0.00 in0.0 mm 0.00 in0.0 mm
07:58 PM 62.6°F17.0°C 38.6°F3.7°C 41% 3.0 mph S4.8 kmh S 5.0 mph8.0 kmh 29.82 in1009.8 mb 0.00 in0.0 mm 0.00 in0.0 mm 0.00 in0.0 mm
08:00 PM 62.4°F16.9°C 38.4°F3.6°C 41% 3.0 mph S4.8 kmh S 5.0 mph8.0 kmh 29.82 in1009.8 mb 0.00 in0.0 mm 0.00 in0.0 mm 0.00 in0.0 mm
08:02 PM 62.2°F16.8°C 38.9°F3.8°C 42% 2.0 mph S3.2 kmh S 5.0 mph8.0 kmh 29.82 in1009.8 mb 0.00 in0.0 mm 0.00 in0.0 mm 0.00 in0.0 mm
08:04 PM 62.0°F16.7°C 38.7°F3.7°C 42% 2.0 mph S3.2 kmh S 4.0 mph6.4 kmh 29.82 in1009.8 mb 0.00 in0.0 mm 0.00 in0.0 mm 0.00 in0.0 mm
08:06 PM 61.9°F16.6°C 38.6°F3.7°C 42% 3.0 mph S4.8 kmh S 4.0 mph6.4 kmh 29.82 in1009.8 mb 0.00 in0.0 mm 0.00 in0.0 mm 0.00 in0.0 mm
08:08 PM 61.7°F16.5°C 38.4°F3.6°C 42% 3.0 mph S4.8 kmh S 4.0 mph6.4 kmh 29.82 in1009.8 mb 0.00 in0.0 mm 0.00 in0.0 mm 0.00 in0.0 mm
08:10 PM 61.6°F16.4°C 38.9°F3.8°C 43% 2.0 mph S3.2 kmh S 4.0 mph6.4 kmh 29.82 in1009.8 mb 0.00 in0.0 mm 0.00 in0.0 mm 0.00 in0.0 mm
08:12 PM 61.5°F16.4°C 38.8°F3.8°C 43% 2.0 mph S3.2 kmh S 4.0 mph6.4 kmh 29.82 in1009.8 mb 0.00 in0.0 mm 0.00 in0.0 mm 0.00 in0.0 mm
08:14 PM 61.4°F16.3°C 38.7°F3.7°C 43% 4.0 mph S6.4 kmh S 4.0 mph6.4 kmh 29.82 in1009.8 mb 0.00 in0.0 mm 0.00 in0.0 mm 0.00 in0.0 mm
08:16 PM 61.3°F16.3°C 38.6°F3.7°C 43% 3.0 mph S4.8 kmh S 4.0 mph6.4 kmh 29.82 in1009.8 mb 0.00 in0.0 mm 0.00 in0.0 mm 0.00 in0.0 mm
08:18 PM 61.2°F16.2°C 38.6°F3.7°C 43% 3.0 mph S4.8 kmh S 4.0 mph6.4 kmh 29.83 in1010.2 mb 0.00 in0.0 mm 0.00 in0.0 mm 0.00 in0.0 mm
08:20 PM 61.1°F16.2°C 39.0°F3.9°C 44% 4.0 mph S6.4 kmh S 4.0 mph6.4 kmh 29.83 in1010.2 mb 0.00 in0.0 mm 0.00 in0.0 mm 0.00 in0.0 mm
08:22 PM 61.0°F16.1°C 39.0°F3.9°C 44% 3.0 mph S4.8 kmh S 4.0 mph6.4 kmh 29.83 in1010.2 mb 0.00 in0.0 mm 0.00 in0.0 mm 0.00 in0.0 mm
08:24 PM 61.0°F16.1°C 39.0°F3.9°C 44% 5.0 mph S8.0 kmh S 5.0 mph8.0 kmh 29.83 in1010.2 mb 0.00 in0.0 mm 0.00 in0.0 mm 0.00 in0.0 mm
08:26 PM 61.0°F16.1°C 38.4°F3.6°C 43% 3.0 mph S4.8 kmh S 5.0 mph8.0 kmh 29.83 in1010.2 mb 0.00 in0.0 mm 0.00 in0.0 mm 0.00 in0.0 mm
08:28 PM 61.1°F16.2°C 38.5°F3.6°C 43% 3.0 mph SSW4.8 kmh SSW 6.0 mph9.7 kmh 29.83 in1010.2 mb 0.00 in0.0 mm 0.00 in0.0 mm 0.00 in0.0 mm
08:30 PM 61.1°F16.2°C 39.0°F3.9°C 44% 2.0 mph SSW3.2 kmh SSW 6.0 mph9.7 kmh 29.83 in1010.2 mb 0.00 in0.0 mm 0.00 in0.0 mm 0.00 in0.0 mm
08:32 PM 61.0°F16.1°C 39.0°F3.9°C 44% 2.0 mph SSW3.2 kmh SSW 6.0 mph9.7 kmh 29.83 in1010.2 mb 0.00 in0.0 mm 0.00 in0.0 mm 0.00 in0.0 mm
08:47 PM 60.5°F15.8°C 38.5°F3.6°C 44% 3.0 mph SSW4.8 kmh SSW 4.0 mph6.4 kmh 29.83 in1010.2 mb 0.00 in0.0 mm 0.00 in0.0 mm 0.00 in0.0 mm
08:50 PM 60.4°F15.8°C 39.0°F3.9°C 45% 3.0 mph SSW4.8 kmh SSW 4.0 mph6.4 kmh 29.83 in1010.2 mb 0.00 in0.0 mm 0.00 in0.0 mm 0.00 in0.0 mm
08:52 PM 60.3°F15.7°C 38.9°F3.8°C 45% 3.0 mph SSW4.8 kmh SSW 4.0 mph6.4 kmh 29.83 in1010.2 mb 0.00 in0.0 mm 0.00 in0.0 mm 0.00 in0.0 mm
08:54 PM 60.2°F15.7°C 38.8°F3.8°C 45% 3.0 mph SSW4.8 kmh SSW 4.0 mph6.4 kmh 29.83 in1010.2 mb 0.00 in0.0 mm 0.00 in0.0 mm 0.00 in0.0 mm
08:56 PM 60.2°F15.7°C 38.8°F3.8°C 45% 2.0 mph SSW3.2 kmh SSW 4.0 mph6.4 kmh 29.83 in1010.2 mb 0.00 in0.0 mm 0.00 in0.0 mm 0.00 in0.0 mm
08:58 PM 60.0°F15.6°C 38.6°F3.7°C 45% 2.0 mph SSW3.2 kmh SSW 4.0 mph6.4 kmh 29.83 in1010.2 mb 0.00 in0.0 mm 0.00 in0.0 mm 0.00 in0.0 mm
09:00 PM 60.0°F15.6°C 38.6°F3.7°C 45% 2.0 mph SSW3.2 kmh SSW 4.0 mph6.4 kmh 29.83 in1010.2 mb 0.00 in0.0 mm 0.00 in0.0 mm 0.00 in0.0 mm
09:02 PM 59.9°F15.5°C 38.5°F3.6°C 45% 3.0 mph SSW4.8 kmh SSW 4.0 mph6.4 kmh 29.83 in1010.2 mb 0.00 in0.0 mm 0.00 in0.0 mm 0.00 in0.0 mm
09:04 PM 59.9°F15.5°C 38.5°F3.6°C 45% 2.0 mph SSW3.2 kmh SSW 4.0 mph6.4 kmh 29.83 in1010.2 mb 0.00 in0.0 mm 0.00 in0.0 mm 0.00 in0.0 mm
09:06 PM 59.9°F15.5°C 38.5°F3.6°C 45% 3.0 mph SSW4.8 kmh SSW 4.0 mph6.4 kmh 29.83 in1010.2 mb 0.00 in0.0 mm 0.00 in0.0 mm 0.00 in0.0 mm
09:08 PM 59.9°F15.5°C 38.5°F3.6°C 45% 2.0 mph SSW3.2 kmh SSW 4.0 mph6.4 kmh 29.83 in1010.2 mb 0.00 in0.0 mm 0.00 in0.0 mm 0.00 in0.0 mm
09:10 PM 59.9°F15.5°C 38.5°F3.6°C 45% 3.0 mph SSW4.8 kmh SSW 4.0 mph6.4 kmh 29.83 in1010.2 mb 0.00 in0.0 mm 0.00 in0.0 mm 0.00 in0.0 mm
09:12 PM 59.8°F15.4°C 38.4°F3.6°C 45% 2.0 mph SSW3.2 kmh SSW 4.0 mph6.4 kmh 29.83 in1010.2 mb 0.00 in0.0 mm 0.00 in0.0 mm 0.00 in0.0 mm
09:14 PM 59.7°F15.4°C 38.4°F3.6°C 45% 2.0 mph SSW3.2 kmh SSW 4.0 mph6.4 kmh 29.83 in1010.2 mb 0.00 in0.0 mm 0.00 in0.0 mm 0.00 in0.0 mm
09:16 PM 59.6°F15.3°C 38.8°F3.8°C 46% 3.0 mph SSW4.8 kmh SSW 4.0 mph6.4 kmh 29.84 in1010.5 mb 0.00 in0.0 mm 0.00 in0.0 mm 0.00 in0.0 mm
09:18 PM 59.6°F15.3°C 38.8°F3.8°C 46% 2.0 mph SSW3.2 kmh SSW 4.0 mph6.4 kmh 29.84 in1010.5 mb 0.00 in0.0 mm 0.00 in0.0 mm 0.00 in0.0 mm
09:20 PM 59.6°F15.3°C 38.8°F3.8°C 46% 2.0 mph SSW3.2 kmh SSW 4.0 mph6.4 kmh 29.84 in1010.5 mb 0.00 in0.0 mm 0.00 in0.0 mm 0.00 in0.0 mm
09:22 PM 59.5°F15.3°C 38.7°F3.7°C 46% 2.0 mph SSW3.2 kmh SSW 4.0 mph6.4 kmh 29.84 in1010.5 mb 0.00 in0.0 mm 0.00 in0.0 mm 0.00 in0.0 mm
09:24 PM 59.5°F15.3°C 38.7°F3.7°C 46% 2.0 mph SSW3.2 kmh SSW 4.0 mph6.4 kmh 29.84 in1010.5 mb 0.00 in0.0 mm 0.00 in0.0 mm 0.00 in0.0 mm
09:26 PM 59.4°F15.2°C 38.6°F3.7°C 46% 2.0 mph SSW3.2 kmh SSW 4.0 mph6.4 kmh 29.84 in1010.5 mb 0.00 in0.0 mm 0.00 in0.0 mm 0.00 in0.0 mm
09:28 PM 59.4°F15.2°C 38.6°F3.7°C 46% 3.0 mph SSW4.8 kmh SSW 4.0 mph6.4 kmh 29.84 in1010.5 mb 0.00 in0.0 mm 0.00 in0.0 mm 0.00 in0.0 mm
09:30 PM 59.4°F15.2°C 38.6°F3.7°C 46% 2.0 mph SSW3.2 kmh SSW 4.0 mph6.4 kmh 29.84 in1010.5 mb 0.00 in0.0 mm 0.00 in0.0 mm 0.00 in0.0 mm
09:32 PM 59.4°F15.2°C 38.6°F3.7°C 46% 2.0 mph SSW3.2 kmh SSW 4.0 mph6.4 kmh 29.84 in1010.5 mb 0.00 in0.0 mm 0.00 in0.0 mm 0.00 in0.0 mm
09:34 PM 59.4°F15.2°C 38.6°F3.7°C 46% 3.0 mph SSW4.8 kmh SSW 4.0 mph6.4 kmh 29.84 in1010.5 mb 0.00 in0.0 mm 0.00 in0.0 mm 0.00 in0.0 mm
09:36 PM 59.3°F15.2°C 38.5°F3.6°C 46% 2.0 mph SSW3.2 kmh SSW 4.0 mph6.4 kmh 29.84 in1010.5 mb 0.00 in0.0 mm 0.00 in0.0 mm 0.00 in0.0 mm
09:38 PM 59.2°F15.1°C 39.0°F3.9°C 47% 2.0 mph SSW3.2 kmh SSW 4.0 mph6.4 kmh 29.84 in1010.5 mb 0.00 in0.0 mm 0.00 in0.0 mm 0.00 in0.0 mm
09:40 PM 59.2°F15.1°C 39.0°F3.9°C 47% 2.0 mph SSW3.2 kmh SSW 4.0 mph6.4 kmh 29.84 in1010.5 mb 0.00 in0.0 mm 0.00 in0.0 mm 0.00 in0.0 mm
09:42 PM 59.2°F15.1°C 39.0°F3.9°C 47% 4.0 mph SSW6.4 kmh SSW 4.0 mph6.4 kmh 29.84 in1010.5 mb 0.00 in0.0 mm 0.00 in0.0 mm 0.00 in0.0 mm
09:44 PM 59.2°F15.1°C 39.0°F3.9°C 47% 2.0 mph SSW3.2 kmh SSW 4.0 mph6.4 kmh 29.84 in1010.5 mb 0.00 in0.0 mm 0.00 in0.0 mm 0.00 in0.0 mm
09:46 PM 59.2°F15.1°C 39.0°F3.9°C 47% 3.0 mph SSW4.8 kmh SSW 4.0 mph6.4 kmh 29.84 in1010.5 mb 0.00 in0.0 mm 0.00 in0.0 mm 0.00 in0.0 mm
09:48 PM 59.2°F15.1°C 39.0°F3.9°C 47% 4.0 mph SSW6.4 kmh SSW 4.0 mph6.4 kmh 29.84 in1010.5 mb 0.00 in0.0 mm 0.00 in0.0 mm 0.00 in0.0 mm
09:50 PM 59.2°F15.1°C 39.0°F3.9°C 47% 2.0 mph SSW3.2 kmh SSW 5.0 mph8.0 kmh 29.84 in1010.5 mb 0.00 in0.0 mm 0.00 in0.0 mm 0.00 in0.0 mm
09:52 PM 59.2°F15.1°C 39.0°F3.9°C 47% 3.0 mph SSW4.8 kmh SSW 5.0 mph8.0 kmh 29.84 in1010.5 mb 0.00 in0.0 mm 0.00 in0.0 mm 0.00 in0.0 mm
09:53 PM 59.2°F15.1°C 39.0°F3.9°C 47% 3.0 mph SSW4.8 kmh SSW 5.0 mph8.0 kmh 29.84 in1010.5 mb 0.00 in0.0 mm 0.00 in0.0 mm 0.00 in0.0 mm
09:56 PM 59.2°F15.1°C 39.0°F3.9°C 47% 2.0 mph SSW3.2 kmh SSW 5.0 mph8.0 kmh 29.83 in1010.2 mb 0.00 in0.0 mm 0.00 in0.0 mm 0.00 in0.0 mm
09:58 PM 59.1°F15.1°C 38.9°F3.8°C 47% 3.0 mph SSW4.8 kmh SSW 5.0 mph8.0 kmh 29.84 in1010.5 mb 0.00 in0.0 mm 0.00 in0.0 mm 0.00 in0.0 mm
10:00 PM 58.9°F14.9°C 38.7°F3.7°C 47% 3.0 mph SSW4.8 kmh SSW 5.0 mph8.0 kmh 29.84 in1010.5 mb 0.00 in0.0 mm 0.00 in0.0 mm 0.00 in0.0 mm
10:02 PM 58.8°F14.9°C 38.6°F3.7°C 47% 3.0 mph SSW4.8 kmh SSW 5.0 mph8.0 kmh 29.84 in1010.5 mb 0.00 in0.0 mm 0.00 in0.0 mm 0.00 in0.0 mm
10:04 PM 58.7°F14.8°C 38.5°F3.6°C 47% 3.0 mph SSW4.8 kmh SSW 4.0 mph6.4 kmh 29.84 in1010.5 mb 0.00 in0.0 mm 0.00 in0.0 mm 0.00 in0.0 mm
10:06 PM 58.7°F14.8°C 38.5°F3.6°C 47% 3.0 mph SSW4.8 kmh SSW 4.0 mph6.4 kmh 29.84 in1010.5 mb 0.00 in0.0 mm 0.00 in0.0 mm 0.00 in0.0 mm
10:08 PM 58.6°F14.8°C 38.5°F3.6°C 47% 2.0 mph SSW3.2 kmh SSW 4.0 mph6.4 kmh 29.84 in1010.5 mb 0.00 in0.0 mm 0.00 in0.0 mm 0.00 in0.0 mm
10:10 PM 58.6°F14.8°C 38.5°F3.6°C 47% 3.0 mph SSW4.8 kmh SSW 4.0 mph6.4 kmh 29.84 in1010.5 mb 0.00 in0.0 mm 0.00 in0.0 mm 0.00 in0.0 mm
10:12 PM 58.5°F14.7°C 38.4°F3.6°C 47% 3.0 mph SSW4.8 kmh SSW 4.0 mph6.4 kmh 29.84 in1010.5 mb 0.00 in0.0 mm 0.00 in0.0 mm 0.00 in0.0 mm
10:14 PM 58.5°F14.7°C 38.9°F3.8°C 48% 3.0 mph SSW4.8 kmh SSW 4.0 mph6.4 kmh 29.84 in1010.5 mb 0.00 in0.0 mm 0.00 in0.0 mm 0.00 in0.0 mm
10:16 PM 58.5°F14.7°C 38.9°F3.8°C 48% 3.0 mph SSW4.8 kmh SSW 4.0 mph6.4 kmh 29.83 in1010.2 mb 0.00 in0.0 mm 0.00 in0.0 mm 0.00 in0.0 mm
10:18 PM 58.4°F14.7°C 38.8°F3.8°C 48% 2.0 mph SSW3.2 kmh SSW 4.0 mph6.4 kmh 29.83 in1010.2 mb 0.00 in0.0 mm 0.00 in0.0 mm 0.00 in0.0 mm
10:20 PM 58.4°F14.7°C 38.8°F3.8°C 48% 3.0 mph SSW4.8 kmh SSW 4.0 mph6.4 kmh 29.84 in1010.5 mb 0.00 in0.0 mm 0.00 in0.0 mm 0.00 in0.0 mm
10:22 PM 58.3°F14.6°C 38.7°F3.7°C 48% 2.0 mph SSW3.2 kmh SSW 4.0 mph6.4 kmh 29.84 in1010.5 mb 0.00 in0.0 mm 0.00 in0.0 mm 0.00 in0.0 mm
10:24 PM 58.3°F14.6°C 38.7°F3.7°C 48% 2.0 mph SSW3.2 kmh SSW 4.0 mph6.4 kmh 29.83 in1010.2 mb 0.00 in0.0 mm 0.00 in0.0 mm 0.00 in0.0 mm
10:26 PM 58.2°F14.6°C 38.6°F3.7°C 48% 2.0 mph SSW3.2 kmh SSW 4.0 mph6.4 kmh 29.84 in1010.5 mb 0.00 in0.0 mm 0.00 in0.0 mm 0.00 in0.0 mm
10:28 PM 58.1°F14.5°C 38.5°F3.6°C 48% 3.0 mph SSW4.8 kmh SSW 4.0 mph6.4 kmh 29.84 in1010.5 mb 0.00 in0.0 mm 0.00 in0.0 mm 0.00 in0.0 mm
10:30 PM 58.1°F14.5°C 38.5°F3.6°C 48% 2.0 mph SSW3.2 kmh SSW 4.0 mph6.4 kmh 29.84 in1010.5 mb 0.00 in0.0 mm 0.00 in0.0 mm 0.00 in0.0 mm
10:32 PM 58.1°F14.5°C 38.5°F3.6°C 48% 2.0 mph SSW3.2 kmh SSW 4.0 mph6.4 kmh 29.84 in1010.5 mb 0.00 in0.0 mm 0.00 in0.0 mm 0.00 in0.0 mm
10:34 PM 58.0°F14.4°C 38.4°F3.6°C 48% 1.0 mph SSW1.6 kmh SSW 3.0 mph4.8 kmh 29.84 in1010.5 mb 0.00 in0.0 mm 0.00 in0.0 mm 0.00 in0.0 mm
10:36 PM 58.0°F14.4°C 39.0°F3.9°C 49% 2.0 mph SSW3.2 kmh SSW 3.0 mph4.8 kmh 29.84 in1010.5 mb 0.00 in0.0 mm 0.00 in0.0 mm 0.00 in0.0 mm
10:38 PM 58.0°F14.4°C 39.0°F3.9°C 49% 2.0 mph SSW3.2 kmh SSW 3.0 mph4.8 kmh 29.84 in1010.5 mb 0.00 in0.0 mm 0.00 in0.0 mm 0.00 in0.0 mm
10:40 PM 57.9°F14.4°C 38.9°F3.8°C 49% 3.0 mph SSW4.8 kmh SSW 3.0 mph4.8 kmh 29.84 in1010.5 mb 0.00 in0.0 mm 0.00 in0.0 mm 0.00 in0.0 mm
10:42 PM 57.8°F14.3°C 38.8°F3.8°C 49% 2.0 mph SSW3.2 kmh SSW 3.0 mph4.8 kmh 29.84 in1010.5 mb 0.00 in0.0 mm 0.00 in0.0 mm 0.00 in0.0 mm
10:44 PM 57.9°F14.4°C 38.9°F3.8°C 49% 1.0 mph SSW1.6 kmh SSW 3.0 mph4.8 kmh 29.84 in1010.5 mb 0.00 in0.0 mm 0.00 in0.0 mm 0.00 in0.0 mm
10:46 PM 57.8°F14.3°C 38.8°F3.8°C 49% 2.0 mph SSW3.2 kmh SSW 3.0 mph4.8 kmh 29.84 in1010.5 mb 0.00 in0.0 mm 0.00 in0.0 mm 0.00 in0.0 mm
10:48 PM 57.9°F14.4°C 38.9°F3.8°C 49% 2.0 mph SSW3.2 kmh SSW 3.0 mph4.8 kmh 29.84 in1010.5 mb 0.00 in0.0 mm 0.00 in0.0 mm 0.00 in0.0 mm
10:50 PM 57.9°F14.4°C 38.9°F3.8°C 49% 2.0 mph SSW3.2 kmh SSW 3.0 mph4.8 kmh 29.84 in1010.5 mb 0.00 in0.0 mm 0.00 in0.0 mm 0.00 in0.0 mm
10:52 PM 58.0°F14.4°C 39.0°F3.9°C 49% 2.0 mph SSW3.2 kmh SSW 3.0 mph4.8 kmh 29.84 in1010.5 mb 0.00 in0.0 mm 0.00 in0.0 mm 0.00 in0.0 mm
10:54 PM 58.0°F14.4°C 39.0°F3.9°C 49% 2.0 mph SSW3.2 kmh SSW 3.0 mph4.8 kmh 29.84 in1010.5 mb 0.00 in0.0 mm 0.00 in0.0 mm 0.00 in0.0 mm
10:55 PM 58.0°F14.4°C 39.0°F3.9°C 49% 2.0 mph SSW3.2 kmh SSW 3.0 mph4.8 kmh 29.84 in1010.5 mb 0.00 in0.0 mm 0.00 in0.0 mm 0.00 in0.0 mm
10:58 PM 58.0°F14.4°C 39.0°F3.9°C 49% 2.0 mph SSW3.2 kmh SSW 3.0 mph4.8 kmh 29.84 in1010.5 mb 0.00 in0.0 mm 0.00 in0.0 mm 0.00 in0.0 mm
11:00 PM 58.0°F14.4°C 38.4°F3.6°C 48% 2.0 mph SSW3.2 kmh SSW 3.0 mph4.8 kmh 29.84 in1010.5 mb 0.00 in0.0 mm 0.00 in0.0 mm 0.00 in0.0 mm
11:02 PM 57.9°F14.4°C 38.9°F3.8°C 49% 2.0 mph SSW3.2 kmh SSW 3.0 mph4.8 kmh 29.84 in1010.5 mb 0.00 in0.0 mm 0.00 in0.0 mm 0.00 in0.0 mm
11:04 PM 57.9°F14.4°C 38.9°F3.8°C 49% 1.0 mph SSW1.6 kmh SSW 2.0 mph3.2 kmh 29.84 in1010.5 mb 0.00 in0.0 mm 0.00 in0.0 mm 0.00 in0.0 mm
11:06 PM 57.8°F14.3°C 38.8°F3.8°C 49% 1.0 mph SSW1.6 kmh SSW 3.0 mph4.8 kmh 29.84 in1010.5 mb 0.00 in0.0 mm 0.00 in0.0 mm 0.00 in0.0 mm
11:08 PM 57.8°F14.3°C 38.8°F3.8°C 49% 2.0 mph SSW3.2 kmh SSW 3.0 mph4.8 kmh 29.84 in1010.5 mb 0.00 in0.0 mm 0.00 in0.0 mm 0.00 in0.0 mm
11:10 PM 57.8°F14.3°C 38.8°F3.8°C 49% 1.0 mph SSW1.6 kmh SSW 3.0 mph4.8 kmh 29.84 in1010.5 mb 0.00 in0.0 mm 0.00 in0.0 mm 0.00 in0.0 mm
11:12 PM 57.8°F14.3°C 38.8°F3.8°C 49% 2.0 mph SSW3.2 kmh SSW 3.0 mph4.8 kmh 29.84 in1010.5 mb 0.00 in0.0 mm 0.00 in0.0 mm 0.00 in0.0 mm
11:14 PM 57.8°F14.3°C 38.8°F3.8°C 49% 2.0 mph SSW3.2 kmh SSW 3.0 mph4.8 kmh 29.84 in1010.5 mb 0.00 in0.0 mm 0.00 in0.0 mm 0.00 in0.0 mm
11:16 PM 57.8°F14.3°C 38.8°F3.8°C 49% 2.0 mph SSW3.2 kmh SSW 3.0 mph4.8 kmh 29.84 in1010.5 mb 0.00 in0.0 mm 0.00 in0.0 mm 0.00 in0.0 mm
11:18 PM 57.8°F14.3°C 38.8°F3.8°C 49% 2.0 mph SSW3.2 kmh SSW 3.0 mph4.8 kmh 29.84 in1010.5 mb 0.00 in0.0 mm 0.00 in0.0 mm 0.00 in0.0 mm
11:20 PM 57.8°F14.3°C 38.8°F3.8°C 49% 3.0 mph SSW4.8 kmh SSW 3.0 mph4.8 kmh 29.84 in1010.5 mb 0.00 in0.0 mm 0.00 in0.0 mm 0.00 in0.0 mm
11:22 PM 57.9°F14.4°C 38.4°F3.6°C 48% 3.0 mph SSW4.8 kmh SSW 3.0 mph4.8 kmh 29.84 in1010.5 mb 0.00 in0.0 mm 0.00 in0.0 mm 0.00 in0.0 mm
11:24 PM 57.9°F14.4°C 38.4°F3.6°C 48% 3.0 mph SSW4.8 kmh SSW 3.0 mph4.8 kmh 29.85 in1010.8 mb 0.00 in0.0 mm 0.00 in0.0 mm 0.00 in0.0 mm
11:26 PM 58.0°F14.4°C 38.4°F3.6°C 48% 3.0 mph SSW4.8 kmh SSW 4.0 mph6.4 kmh 29.84 in1010.5 mb 0.00 in0.0 mm 0.00 in0.0 mm 0.00 in0.0 mm
11:28 PM 58.0°F14.4°C 38.4°F3.6°C 48% 3.0 mph SSW4.8 kmh SSW 4.0 mph6.4 kmh 29.85 in1010.8 mb 0.00 in0.0 mm 0.00 in0.0 mm 0.00 in0.0 mm
11:30 PM 58.0°F14.4°C 38.4°F3.6°C 48% 3.0 mph SSW4.8 kmh SSW 4.0 mph6.4 kmh 29.85 in1010.8 mb 0.00 in0.0 mm 0.00 in0.0 mm 0.00 in0.0 mm
11:32 PM 58.0°F14.4°C 38.4°F3.6°C 48% 4.0 mph SSW6.4 kmh SSW 4.0 mph6.4 kmh 29.85 in1010.8 mb 0.00 in0.0 mm 0.00 in0.0 mm 0.00 in0.0 mm
11:34 PM 58.0°F14.4°C 38.4°F3.6°C 48% 4.0 mph SSW6.4 kmh SSW 4.0 mph6.4 kmh 29.85 in1010.8 mb 0.00 in0.0 mm 0.00 in0.0 mm 0.00 in0.0 mm
11:36 PM 57.9°F14.4°C 38.4°F3.6°C 48% 3.0 mph SSW4.8 kmh SSW 4.0 mph6.4 kmh 29.85 in1010.8 mb 0.00 in0.0 mm 0.00 in0.0 mm 0.00 in0.0 mm
11:38 PM 57.7°F14.3°C 38.2°F3.4°C 48% 2.0 mph SSW3.2 kmh SSW 4.0 mph6.4 kmh 29.85 in1010.8 mb 0.00 in0.0 mm 0.00 in0.0 mm 0.00 in0.0 mm
11:40 PM 57.6°F14.2°C 38.6°F3.7°C 49% 3.0 mph SSW4.8 kmh SSW 4.0 mph6.4 kmh 29.85 in1010.8 mb 0.00 in0.0 mm 0.00 in0.0 mm 0.00 in0.0 mm
11:42 PM 57.5°F14.2°C 38.5°F3.6°C 49% 3.0 mph SSW4.8 kmh SSW 4.0 mph6.4 kmh 29.85 in1010.8 mb 0.00 in0.0 mm 0.00 in0.0 mm 0.00 in0.0 mm
11:44 PM 57.5°F14.2°C 38.5°F3.6°C 49% 2.0 mph SSW3.2 kmh SSW 4.0 mph6.4 kmh 29.85 in1010.8 mb 0.00 in0.0 mm 0.00 in0.0 mm 0.00 in0.0 mm
11:46 PM 57.4°F14.1°C 38.4°F3.6°C 49% 2.0 mph SSW3.2 kmh SSW 4.0 mph6.4 kmh 29.85 in1010.8 mb 0.00 in0.0 mm 0.00 in0.0 mm 0.00 in0.0 mm
11:48 PM 57.4°F14.1°C 38.4°F3.6°C 49% 2.0 mph SSW3.2 kmh SSW 4.0 mph6.4 kmh 29.85 in1010.8 mb 0.00 in0.0 mm 0.00 in0.0 mm 0.00 in0.0 mm
11:50 PM 57.4°F14.1°C 38.4°F3.6°C 49% 1.0 mph SSW1.6 kmh SSW 4.0 mph6.4 kmh 29.86 in1011.2 mb 0.00 in0.0 mm 0.00 in0.0 mm 0.00 in0.0 mm
11:52 PM 57.4°F14.1°C 38.4°F3.6°C 49% 1.0 mph SSW1.6 kmh SSW 4.0 mph6.4 kmh 29.85 in1010.8 mb 0.00 in0.0 mm 0.00 in0.0 mm 0.00 in0.0 mm
11:54 PM 57.4°F14.1°C 38.4°F3.6°C 49% 1.0 mph SSW1.6 kmh SSW 4.0 mph6.4 kmh 29.85 in1010.8 mb 0.00 in0.0 mm 0.00 in0.0 mm 0.00 in0.0 mm
11:56 PM 57.3°F14.1°C 38.3°F3.5°C 49% 1.0 mph SSW1.6 kmh SSW 4.0 mph6.4 kmh 29.85 in1010.8 mb 0.00 in0.0 mm 0.00 in0.0 mm 0.00 in0.0 mm
11:58 PM 57.4°F14.1°C 38.4°F3.6°C 49% 1.0 mph SSW1.6 kmh SSW 4.0 mph6.4 kmh 29.85 in1010.8 mb 0.00 in0.0 mm 0.00 in0.0 mm 0.00 in0.0 mm